PORTS® Data Listing: 8516945 Kings Point, NY

CO-OPS RAW PORTS DATA

************************      PRELIMINARY DATA      ************************** 

     THIS RAW DATA HAS NOT BEEN SUBJECT TO THE NATIONAL OCEAN SERVICE'S        
     QUALITY CONTROL OR QUALITY ASSURANCE PROCEDURES AND DOES NOT MEET         
     THE CRITERIA AND STANDARDS OF OFFICIAL NATIONAL OCEAN SERVICE             
     DATA.  IT IS RELEASED FOR LIMITED PUBLIC USE AS PRELIMINARY DATA TO       
     BE USED ONLY WITH APPROPRIATE CAUTION.                                    

************************      PRELIMINARY DATA      ************************** 


       CD   -   Calendar date
       T    -   Time
       TZ   -   Timezone
       PW   -   Predicted water level (feet above MLLW)
       OW   -   Observed water level (feet above MLLW)
       WS   -   Wind speed (knots)
       WD   -   Wind direction (degrees true)
       WG   -   Wind gust (knots)
       AT   -   Air temperature (degrees farenheit)
       WT   -   Water temperature (degrees farenheit)
       AP   -   Air pressure (millibars)
       SA   -   Salinty (PSU - Practical Salinity Units)
       SG   -   Specific gravity
       RH   -   Relative humidity
       AG   -   Air gap (feet)
       VI   -   Visibility (nautical miles)

       ** NOTE **
       A variable that has its data fields filled with "9"s, indicates that
       data was not collected for that sample period.
       **********


STATION NAME: Kings Point (8516945)
****************************************************************************************************
    CD       T    TZ    PW     OW    WS   WD   WG    AT    WT    AP    SA    SG     RH    AG   VI
****************************************************************************************************
2019/12/07 06:12 EST    6.45   6.06   10    5   12  34.5  42.8 1026.8 -9.9 -9.999 -99.9 -99.99 -9.99
2019/12/07 06:18 EST    6.52   6.14   10    7   13  34.5  42.8 1026.8 -9.9 -9.999 -99.9 -99.99 -9.99
2019/12/07 06:24 EST    6.58   6.22   10    4   12  34.5  42.8 1026.9 -9.9 -9.999 -99.9 -99.99 -9.99
2019/12/07 06:30 EST    6.64   6.28   12  356   15  34.7  42.8 1027.0 -9.9 -9.999 -99.9 -99.99 -9.99
2019/12/07 06:36 EST    6.69   6.32   12  353   18  34.3  42.8 1027.2 -9.9 -9.999 -99.9 -99.99 -9.99
2019/12/07 06:42 EST    6.74   6.36   11  359   16  34.2  42.8 1027.2 -9.9 -9.999 -99.9 -99.99 -9.99
2019/12/07 06:48 EST    6.78   6.39   12    5   14  34.3  42.8 1027.3 -9.9 -9.999 -99.9 -99.99 -9.99
2019/12/07 06:54 EST    6.83   6.42   12    9   14  34.2  43.0 1027.3 -9.9 -9.999 -99.9 -99.99 -9.99
2019/12/07 07:00 EST    6.87   6.44   13    9   15  34.2  42.8 1027.4 -9.9 -9.999 -99.9 -99.99 -9.99
2019/12/07 07:06 EST    6.91   6.46   11    4   13  34.0  42.8 1027.5 -9.9 -9.999 -99.9 -99.99 -9.99
2019/12/07 07:12 EST    6.95   6.48   11  353   16  34.0  42.8 1027.5 -9.9 -9.999 -99.9 -99.99 -9.99
2019/12/07 07:18 EST    6.98   6.49   10    1   14  34.0  42.8 1027.7 -9.9 -9.999 -99.9 -99.99 -9.99
2019/12/07 07:24 EST    7.01   6.50   12  351   16  34.0  42.8 1027.8 -9.9 -9.999 -99.9 -99.99 -9.99
2019/12/07 07:30 EST    7.04   6.50   11    4   18  33.8  42.8 1028.0 -9.9 -9.999 -99.9 -99.99 -9.99
2019/12/07 07:36 EST    7.07   6.50   13    3   16  33.8  42.8 1028.0 -9.9 -9.999 -99.9 -99.99 -9.99
2019/12/07 07:42 EST    7.09   6.51   14    6   17  33.6  42.8 1028.0 -9.9 -9.999 -99.9 -99.99 -9.99
2019/12/07 07:48 EST    7.11   6.48   17  355   21  33.4  42.8 1028.0 -9.9 -9.999 -99.9 -99.99 -9.99
2019/12/07 07:54 EST    7.12   6.48   16    2   20  33.3  42.8 1028.0 -9.9 -9.999 -99.9 -99.99 -9.99
2019/12/07 08:00 EST    7.13   6.48   15    5   19  33.4  42.8 1028.0 -9.9 -9.999 -99.9 -99.99 -9.99
2019/12/07 08:06 EST    7.13   6.48   17    6   19  33.4  42.8 1028.0 -9.9 -9.999 -99.9 -99.99 -9.99
2019/12/07 08:12 EST    7.13   6.48   15    1   18  33.4  42.8 1028.1 -9.9 -9.999 -99.9 -99.99 -9.99
2019/12/07 08:18 EST    7.11   6.47   15    4   18  33.4  42.8 1028.1 -9.9 -9.999 -99.9 -99.99 -9.99
2019/12/07 08:24 EST    7.09   6.47   15    4   18  33.3  42.8 1028.1 -9.9 -9.999 -99.9 -99.99 -9.99
2019/12/07 08:30 EST    7.06   6.46   14   10   19  33.4  42.8 1028.1 -9.9 -9.999 -99.9 -99.99 -9.99
2019/12/07 08:36 EST    7.02   6.44   16    3   20  33.1  42.8 1028.1 -9.9 -9.999 -99.9 -99.99 -9.99
2019/12/07 08:42 EST    6.98   6.43   14    3   18  33.3  43.0 1028.2 -9.9 -9.999 -99.9 -99.99 -9.99
2019/12/07 08:48 EST    6.92   6.41   15    8   17  33.4  43.0 1028.3 -9.9 -9.999 -99.9 -99.99 -9.99
2019/12/07 08:54 EST    6.85   6.39   17    3   20  33.6  43.0 1028.4 -9.9 -9.999 -99.9 -99.99 -9.99
2019/12/07 09:00 EST    6.77   6.35   17    6   23  33.4  43.0 1028.5 -9.9 -9.999 -99.9 -99.99 -9.99
2019/12/07 09:06 EST    6.68   6.30   17    6   20  33.4  43.0 1028.6 -9.9 -9.999 -99.9 -99.99 -9.99
2019/12/07 09:12 EST    6.57   6.24   16    6   20  33.4  43.0 1028.7 -9.9 -9.999 -99.9 -99.99 -9.99
2019/12/07 09:18 EST    6.46   6.16   16    5   19  33.6  43.2 1028.8 -9.9 -9.999 -99.9 -99.99 -9.99
2019/12/07 09:24 EST    6.34   6.08   16    1   20  34.2  43.3 1028.8 -9.9 -9.999 -99.9 -99.99 -9.99
2019/12/07 09:30 EST    6.20   6.00   17    3   20  33.8  43.3 1028.7 -9.9 -9.999 -99.9 -99.99 -9.99
2019/12/07 09:36 EST    6.06   5.90   17    5   20  34.0  43.3 1028.7 -9.9 -9.999 -99.9 -99.99 -9.99
2019/12/07 09:42 EST    5.90   5.79   18   12   22  34.2  43.3 1028.7 -9.9 -9.999 -99.9 -99.99 -9.99
2019/12/07 09:48 EST    5.74   5.66   17   21   21  34.2  43.3 1028.8 -9.9 -9.999 -99.9 -99.99 -9.99
2019/12/07 09:54 EST    5.57   5.55   19    9   22  34.3  43.3 1028.8 -9.9 -9.999 -99.9 -99.99 -9.99
2019/12/07 10:00 EST    5.39   5.41   17   11   23  34.3  43.3 1028.9 -9.9 -9.999 -99.9 -99.99 -9.99
2019/12/07 10:06 EST    5.21   5.25   18   19   21  34.7  43.3 1028.9 -9.9 -9.999 -99.9 -99.99 -9.99
2019/12/07 10:12 EST    5.02   5.09   17   15   20  34.7  43.2 1028.8 -9.9 -9.999 -99.9 -99.99 -9.99
2019/12/07 10:18 EST    4.82   4.91   16   12   19  34.7  42.8 1028.8 -9.9 -9.999 -99.9 -99.99 -9.99
2019/12/07 10:24 EST    4.63   4.72   16    5   18  34.7  42.6 1028.9 -9.9 -9.999 -99.9 -99.99 -9.99
2019/12/07 10:30 EST    4.43   4.55   14    2   20  34.5  42.6 1028.9 -9.9 -9.999 -99.9 -99.99 -9.99
2019/12/07 10:36 EST    4.23   4.34   16    7   18  34.9  42.4 1028.9 -9.9 -9.999 -99.9 -99.99 -9.99
2019/12/07 10:42 EST    4.03   4.16   16   20   20  34.9  42.4 1028.9 -9.9 -9.999 -99.9 -99.99 -9.99
2019/12/07 10:48 EST    3.83   3.95   16   14   21  35.1  42.4 1028.9 -9.9 -9.999 -99.9 -99.99 -9.99
2019/12/07 10:54 EST    3.63   3.77   14   18   18  35.1  42.4 1028.9 -9.9 -9.999 -99.9 -99.99 -9.99
2019/12/07 11:00 EST    3.44   3.57   14   18   18  35.1  42.4 1028.7 -9.9 -9.999 -99.9 -99.99 -9.99
2019/12/07 11:06 EST    3.25   3.36   14    7   17  35.2  42.4 1028.7 -9.9 -9.999 -99.9 -99.99 -9.99
2019/12/07 11:12 EST    3.07   3.16   16    8   18  35.1  42.4 1028.6 -9.9 -9.999 -99.9 -99.99 -9.99
2019/12/07 11:18 EST    2.89   2.96   18  360   21  35.2  42.3 1028.6 -9.9 -9.999 -99.9 -99.99 -9.99
2019/12/07 11:24 EST    2.72   2.80   17    4   22  35.2  42.3 1028.5 -9.9 -9.999 -99.9 -99.99 -9.99
2019/12/07 11:30 EST    2.56   2.62   16   12   20  35.2  42.3 1028.5 -9.9 -9.999 -99.9 -99.99 -9.99
2019/12/07 11:36 EST    2.41   2.43   17   13   19  35.1  42.3 1028.5 -9.9 -9.999 -99.9 -99.99 -9.99
2019/12/07 11:42 EST    2.27   2.26   17    7   21  35.1  42.3 1028.4 -9.9 -9.999 -99.9 -99.99 -9.99
2019/12/07 11:48 EST    2.13   2.11   15    8   21  35.1  42.3 1028.4 -9.9 -9.999 -99.9 -99.99 -9.99
2019/12/07 11:54 EST    2.00   1.96   19    5   22  35.2  42.4 1028.5 -9.9 -9.999 -99.9 -99.99 -9.99
2019/12/07 12:00 EST    1.89   1.82   16    4   20  35.2  42.4 1028.6 -9.9 -9.999 -99.9 -99.99 -9.99
2019/12/07 12:06 EST    1.78   1.69   14   17   19  35.2  42.4 1028.5 -9.9 -9.999 -99.9 -99.99 -9.99
2019/12/07 12:12 EST    1.68   1.56   15    5   19  35.1  42.4 1028.5 -9.9 -9.999 -99.9 -99.99 -9.99
2019/12/07 12:18 EST    1.59   1.45   15    9   19  35.4  42.3 1028.5 -9.9 -9.999 -99.9 -99.99 -9.99
2019/12/07 12:24 EST    1.50   1.36   16    4   19  35.2  42.3 1028.5 -9.9 -9.999 -99.9 -99.99 -9.99
2019/12/07 12:30 EST    1.42   1.28   12   12   17  35.4  42.3 1028.6 -9.9 -9.999 -99.9 -99.99 -9.99
2019/12/07 12:36 EST    1.35   1.21   15    1   17  35.4  42.3 1028.6 -9.9 -9.999 -99.9 -99.99 -9.99
2019/12/07 12:42 EST    1.29   1.14   14    1   17  35.6  42.1 1028.6 -9.9 -9.999 -99.9 -99.99 -9.99
2019/12/07 12:48 EST    1.23   1.09   12  354   15  35.6  42.1 1028.6 -9.9 -9.999 -99.9 -99.99 -9.99
2019/12/07 12:54 EST    1.17   1.06   11   11   16  35.8  42.1 1028.6 -9.9 -9.999 -99.9 -99.99 -9.99
2019/12/07 13:00 EST    1.12   1.02   11    2   15  35.8  42.1 1028.6 -9.9 -9.999 -99.9 -99.99 -9.99
2019/12/07 13:06 EST    1.07   1.01   11    6   15  36.0  42.1 1028.5 -9.9 -9.999 -99.9 -99.99 -9.99
2019/12/07 13:12 EST    1.02   0.98   17   14   20  35.6  42.1 1028.5 -9.9 -9.999 -99.9 -99.99 -9.99
2019/12/07 13:18 EST    0.98   0.97   14   14   18  35.6  42.1 1028.5 -9.9 -9.999 -99.9 -99.99 -9.99
2019/12/07 13:24 EST    0.94   0.96   12   11   16  35.6  42.1 1028.6 -9.9 -9.999 -99.9 -99.99 -9.99
2019/12/07 13:30 EST    0.89   0.94   14   15   17  35.8  42.1 1028.6 -9.9 -9.999 -99.9 -99.99 -9.99
2019/12/07 13:36 EST    0.85   0.93   14   22   17  35.6  42.1 1028.5 -9.9 -9.999 -99.9 -99.99 -9.99
2019/12/07 13:42 EST    0.81   0.92   14    2   19  35.8  42.1 1028.5 -9.9 -9.999 -99.9 -99.99 -9.99
2019/12/07 13:48 EST    0.77   0.91   14  359   18  36.0  42.1 1028.7 -9.9 -9.999 -99.9 -99.99 -9.99
2019/12/07 13:54 EST    0.74   0.89    9    2   20  35.8  42.1 1028.7 -9.9 -9.999 -99.9 -99.99 -9.99
2019/12/07 14:00 EST    0.70   0.86   15   14   17  36.1  42.1 1028.7 -9.9 -9.999 -99.9 -99.99 -9.99
2019/12/07 14:06 EST    0.67   0.84   12   13   17  36.1  42.1 1028.7 -9.9 -9.999 -99.9 -99.99 -9.99
2019/12/07 14:12 EST    0.64   0.82   13   20   16  36.3  42.1 1028.7 -9.9 -9.999 -99.9 -99.99 -9.99
2019/12/07 14:18 EST    0.62   0.80   12   10   17  36.3  42.1 1028.7 -9.9 -9.999 -99.9 -99.99 -9.99
2019/12/07 14:24 EST    0.60   0.76   11   10   14  36.1  42.1 1028.7 -9.9 -9.999 -99.9 -99.99 -9.99
2019/12/07 14:30 EST    0.59   0.74   10    2   14  36.3  42.1 1028.7 -9.9 -9.999 -99.9 -99.99 -9.99
2019/12/07 14:36 EST    0.58   0.74   12   12   15  36.3  42.3 1028.8 -9.9 -9.999 -99.9 -99.99 -9.99
2019/12/07 14:42 EST    0.59   0.72    9   14   12  36.5  42.3 1028.8 -9.9 -9.999 -99.9 -99.99 -9.99
2019/12/07 14:48 EST    0.60   0.71   15   30   17  37.0  42.4 1028.8 -9.9 -9.999 -99.9 -99.99 -9.99
2019/12/07 14:54 EST    0.62   0.73   12    9   14  36.7  42.3 1028.8 -9.9 -9.999 -99.9 -99.99 -9.99
2019/12/07 15:00 EST    0.66   0.75   12   29   16  37.0  42.3 1028.8 -9.9 -9.999 -99.9 -99.99 -9.99
2019/12/07 15:06 EST    0.70   0.78   12   12   15  36.9  42.3 1028.9 -9.9 -9.999 -99.9 -99.99 -9.99
2019/12/07 15:12 EST    0.76   0.83   11   12   13  36.9  42.4 1029.0 -9.9 -9.999 -99.9 -99.99 -9.99
2019/12/07 15:18 EST    0.83   0.89   11    8   14  37.0  42.6 1029.0 -9.9 -9.999 -99.9 -99.99 -9.99
2019/12/07 15:24 EST    0.92   0.97   14   13   16  36.9  42.6 1029.1 -9.9 -9.999 -99.9 -99.99 -9.99
2019/12/07 15:30 EST    1.02   1.05   11   16   15  36.7  42.6 1029.2 -9.9 -9.999 -99.9 -99.99 -9.99
2019/12/07 15:36 EST    1.13   1.15   14   14   16  36.9  42.8 1029.2 -9.9 -9.999 -99.9 -99.99 -9.99
2019/12/07 15:42 EST    1.26   1.27   16   17   17  36.9  42.8 1029.2 -9.9 -9.999 -99.9 -99.99 -9.99
2019/12/07 15:48 EST    1.40   1.40   12   13   17  36.9  42.8 1029.3 -9.9 -9.999 -99.9 -99.99 -9.99
2019/12/07 15:54 EST    1.55   1.53   13    6   16  36.9  42.8 1029.3 -9.9 -9.999 -99.9 -99.99 -9.99
2019/12/07 16:00 EST    1.71   1.69   12   17   14  36.9  42.8 1029.4 -9.9 -9.999 -99.9 -99.99 -9.99
2019/12/07 16:06 EST    1.88   1.86   13    7   17  36.7  43.0 1029.4 -9.9 -9.999 -99.9 -99.99 -9.99
2019/12/07 16:12 EST    2.06   2.02   13    8   17  36.7  43.0 1029.5 -9.9 -9.999 -99.9 -99.99 -9.99
2019/12/07 16:18 EST    2.25   2.23   15    9   18  36.7  43.0 1029.5 -9.9 -9.999 -99.9 -99.99 -9.99
2019/12/07 16:24 EST    2.45   2.43   15    6   18  36.7  42.8 1029.6 -9.9 -9.999 -99.9 -99.99 -9.99
2019/12/07 16:30 EST    2.65   2.63   14    9   17  36.3  42.8 1029.8 -9.9 -9.999 -99.9 -99.99 -9.99
2019/12/07 16:36 EST    2.85   2.82   13    8   15  36.5  42.8 1029.9 -9.9 -9.999 -99.9 -99.99 -9.99
2019/12/07 16:42 EST    3.06   3.02   12    8   14  36.3  42.8 1030.0 -9.9 -9.999 -99.9 -99.99 -9.99
2019/12/07 16:48 EST    3.27   3.22   11    8   14  36.1  42.8 1030.1 -9.9 -9.999 -99.9 -99.99 -9.99
2019/12/07 16:54 EST    3.47   3.41   12    4   14  36.1  42.8 1030.3 -9.9 -9.999 -99.9 -99.99 -9.99
2019/12/07 17:00 EST    3.67   3.61   11    3   14  36.0  42.8 1030.4 -9.9 -9.999 -99.9 -99.99 -9.99
2019/12/07 17:06 EST    3.87   3.81   12    5   14  36.0  42.8 1030.5 -9.9 -9.999 -99.9 -99.99 -9.99
2019/12/07 17:12 EST    4.07   4.00   11    5   14  36.3  42.8 1030.6 -9.9 -9.999 -99.9 -99.99 -9.99
2019/12/07 17:18 EST    4.25   4.18   12    9   13  36.1  42.8 1030.7 -9.9 -9.999 -99.9 -99.99 -9.99
2019/12/07 17:24 EST    4.43   4.37   11    5   15  36.1  42.8 1030.7 -9.9 -9.999 -99.9 -99.99 -9.99
2019/12/07 17:30 EST    4.60   4.56   12    5   16  36.1  43.0 1030.8 -9.9 -9.999 -99.9 -99.99 -9.99
2019/12/07 17:36 EST    4.77   4.73   10    2   14  36.0  43.0 1030.9 -9.9 -9.999 -99.9 -99.99 -9.99
2019/12/07 17:42 EST    4.92   4.91   10    6   13  36.0  43.0 1031.0 -9.9 -9.999 -99.9 -99.99 -9.99
2019/12/07 17:48 EST    5.06   5.07   11    4   13  36.0  43.0 1031.1 -9.9 -9.999 -99.9 -99.99 -9.99
2019/12/07 17:54 EST    5.20   5.24   10   10   12  36.0  43.0 1031.2 -9.9 -9.999 -99.9 -99.99 -9.99
2019/12/07 18:00 EST    5.32   5.38   10    0   13  36.0  42.8 1031.3 -9.9 -9.999 -99.9 -99.99 -9.99
2019/12/07 18:06 EST    5.44   5.54   10    4   13  36.0  43.0 1031.2 -9.9 -9.999 -99.9 -99.99 -9.99
2019/12/07 18:12 EST    5.54   5.68   11    6   13  35.8  43.0 1031.2 -9.9 -9.999 -99.9 -99.99 -9.99
2019/12/07 18:18 EST    5.64   5.82   12   12   14  35.8  42.8 1031.3 -9.9 -9.999 -99.9 -99.99 -9.99
2019/12/07 18:24 EST    5.73   5.95   12    6   14  35.4  43.0 1031.4 -9.9 -9.999 -99.9 -99.99 -9.99
2019/12/07 18:30 EST    5.82   6.06   11    4   15  35.6  43.0 1031.4 -9.9 -9.999 -99.9 -99.99 -9.99
2019/12/07 18:36 EST    5.89   6.17   12    6   15  35.2  43.0 1031.4 -9.9 -9.999 -99.9 -99.99 -9.99
2019/12/07 18:42 EST    5.96   6.27   12    7   18  35.4  42.8 1031.5 -9.9 -9.999 -99.9 -99.99 -9.99
2019/12/07 18:48 EST    6.03   6.35   13    8   16  35.2  42.8 1031.6 -9.9 -9.999 -99.9 -99.99 -9.99
2019/12/07 18:54 EST    6.09   6.43   14   11   17  34.9  42.8 1031.7 -9.9 -9.999 -99.9 -99.99 -9.99
2019/12/07 19:00 EST    6.14   6.51   13    4   17  34.9  42.8 1031.7 -9.9 -9.999 -99.9 -99.99 -9.99
2019/12/07 19:06 EST    6.20   6.56   14    4   17  34.7  42.8 1031.7 -9.9 -9.999 -99.9 -99.99 -9.99
2019/12/07 19:12 EST    6.24   6.60   15    6   17  34.7  42.8 1031.7 -9.9 -9.999 -99.9 -99.99 -9.99
2019/12/07 19:18 EST    6.29   6.65   12   16   17  34.7  42.6 1031.8 -9.9 -9.999 -99.9 -99.99 -9.99
2019/12/07 19:24 EST    6.33   6.69   13   11   17  34.7  42.6 1031.9 -9.9 -9.999 -99.9 -99.99 -9.99
2019/12/07 19:30 EST    6.38   6.72   12    6   15  34.7  42.6 1032.0 -9.9 -9.999 -99.9 -99.99 -9.99
2019/12/07 19:36 EST    6.41   6.74   12   13   15  34.7  42.6 1032.1 -9.9 -9.999 -99.9 -99.99 -9.99
2019/12/07 19:42 EST    6.45   6.75   11   14   16  34.7  42.6 1032.1 -9.9 -9.999 -99.9 -99.99 -9.99
2019/12/07 19:48 EST    6.48   6.76   17   14   19  34.7  42.6 1032.1 -9.9 -9.999 -99.9 -99.99 -9.99
2019/12/07 19:54 EST    6.51   6.77   15   12   18  34.5  42.6 1032.3 -9.9 -9.999 -99.9 -99.99 -9.99
2019/12/07 20:00 EST    6.54   6.77   13   19   17  34.3  42.6 1032.4 -9.9 -9.999 -99.9 -99.99 -9.99
2019/12/07 20:06 EST    6.56   6.79   14   16   16  34.3  42.6 1032.4 -9.9 -9.999 -99.9 -99.99 -9.99
2019/12/07 20:12 EST    6.58   6.80   15   15   17  34.2  42.6 1032.4 -9.9 -9.999 -99.9 -99.99 -9.99
2019/12/07 20:18 EST    6.60   6.80   14   12   17  34.0  42.4 1032.5 -9.9 -9.999 -99.9 -99.99 -9.99
2019/12/07 20:24 EST    6.61   6.81   13   15   17  34.3  42.4 1032.6 -9.9 -9.999 -99.9 -99.99 -9.99
2019/12/07 20:30 EST    6.61   6.81   12   18   16  34.3  42.3 1032.6 -9.9 -9.999 -99.9 -99.99 -9.99
2019/12/07 20:36 EST    6.60   6.81   12   22   14  33.8  42.4 1032.6 -9.9 -9.999 -99.9 -99.99 -9.99
2019/12/07 20:42 EST    6.59   6.82   12   10   13  34.0  42.4 1032.7 -9.9 -9.999 -99.9 -99.99 -9.99
2019/12/07 20:48 EST    6.57   6.82   13   12   15  33.8  42.4 1032.8 -9.9 -9.999 -99.9 -99.99 -9.99
2019/12/07 20:54 EST    6.54   6.80   12   18   15  33.8  42.4 1032.8 -9.9 -9.999 -99.9 -99.99 -9.99
2019/12/07 21:00 EST    6.50   6.78   10   24   16  33.6  42.6 1032.8 -9.9 -9.999 -99.9 -99.99 -9.99
2019/12/07 21:06 EST    6.45   6.77   11   20   14  33.6  42.6 1032.9 -9.9 -9.999 -99.9 -99.99 -9.99
2019/12/07 21:12 EST    6.40   6.73   12   28   14  33.6  42.6 1033.0 -9.9 -9.999 -99.9 -99.99 -9.99
2019/12/07 21:18 EST    6.33   6.69   10   28   13  33.4  42.6 1033.0 -9.9 -9.999 -99.9 -99.99 -9.99
2019/12/07 21:24 EST    6.25   6.64   12   26   14  33.4  42.8 1033.0 -9.9 -9.999 -99.9 -99.99 -9.99
2019/12/07 21:30 EST    6.16   6.59   10   23   14  33.1  42.8 1033.0 -9.9 -9.999 -99.9 -99.99 -9.99
2019/12/07 21:36 EST    6.05   6.51   10   27   13  33.3  42.8 1033.0 -9.9 -9.999 -99.9 -99.99 -9.99
2019/12/07 21:42 EST    5.94   6.42   11   22   13  33.3  43.0 1033.0 -9.9 -9.999 -99.9 -99.99 -9.99
2019/12/07 21:48 EST    5.82   6.32    9   28   12  32.9  43.0 1033.1 -9.9 -9.999 -99.9 -99.99 -9.99
2019/12/07 21:54 EST    5.68   6.20    9   25   11  32.9  43.0 1033.0 -9.9 -9.999 -99.9 -99.99 -9.99
2019/12/07 22:00 EST    5.54   6.08   10   27   11  33.1  43.0 1033.1 -9.9 -9.999 -99.9 -99.99 -9.99
2019/12/07 22:06 EST    5.39   5.95   10   26   12  32.7  43.0 1033.1 -9.9 -9.999 -99.9 -99.99 -9.99
2019/12/07 22:12 EST    5.23   5.79    9   25   11  32.7  43.0 1033.1 -9.9 -9.999 -99.9 -99.99 -9.99
2019/12/07 22:18 EST    5.06   5.63    8   23   10  32.5  43.0 1033.3 -9.9 -9.999 -99.9 -99.99 -9.99
2019/12/07 22:24 EST    4.88   5.44   10   19   11  32.7  42.8 1033.3 -9.9 -9.999 -99.9 -99.99 -9.99
2019/12/07 22:30 EST    4.70   5.27   10    9   11  32.5  42.4 1033.5 -9.9 -9.999 -99.9 -99.99 -9.99
2019/12/07 22:36 EST    4.51   5.08    9    7   10  32.4  42.4 1033.5 -9.9 -9.999 -99.9 -99.99 -9.99
2019/12/07 22:42 EST    4.32   4.88    8   12   10  32.5  42.4 1033.5 -9.9 -9.999 -99.9 -99.99 -9.99
2019/12/07 22:48 EST    4.12   4.67    9   25   11  32.4  42.4 1033.7 -9.9 -9.999 -99.9 -99.99 -9.99
2019/12/07 22:54 EST    3.92   4.46    8   23   11  32.4  42.4 1033.7 -9.9 -9.999 -99.9 -99.99 -9.99
2019/12/07 23:00 EST    3.73   4.26    8   21    9  32.4  42.4 1033.8 -9.9 -9.999 -99.9 -99.99 -9.99
2019/12/07 23:06 EST    3.53   4.05    8   12   10  32.2  42.6 1033.6 -9.9 -9.999 -99.9 -99.99 -9.99
2019/12/07 23:12 EST    3.34   3.85    8   16    9  32.2  42.4 1033.7 -9.9 -9.999 -99.9 -99.99 -9.99
2019/12/07 23:18 EST    3.14   3.66    8   21    9  32.2  42.4 1033.8 -9.9 -9.999 -99.9 -99.99 -9.99
2019/12/07 23:24 EST    2.96   3.46    7   24    9  32.0  42.4 1033.8 -9.9 -9.999 -99.9 -99.99 -9.99
2019/12/07 23:30 EST    2.77   3.27    7   17    9  32.0  42.3 1033.8 -9.9 -9.999 -99.9 -99.99 -9.99
2019/12/07 23:36 EST    2.60   3.07    7   14    8  32.0  42.3 1033.8 -9.9 -9.999 -99.9 -99.99 -9.99
2019/12/07 23:42 EST    2.43   2.89    8   20    9  31.8  42.3 1033.7 -9.9 -9.999 -99.9 -99.99 -9.99
2019/12/07 23:48 EST    2.27   2.71    7   31    9  31.6  42.3 1033.7 -9.9 -9.999 -99.9 -99.99 -9.99
2019/12/07 23:54 EST    2.12   2.55    7   29    9  31.6  42.3 1033.6 -9.9 -9.999 -99.9 -99.99 -9.99
2019/12/08 00:00 EST    1.97   2.39    7   28    9  31.6  42.1 1033.6 -9.9 -9.999 -99.9 -99.99 -9.99
2019/12/08 00:06 EST    1.84   2.24    7   31    9  31.6  42.1 1033.6 -9.9 -9.999 -99.9 -99.99 -9.99
2019/12/08 00:12 EST    1.71   2.10    6   45    8  32.0  42.1 1033.6 -9.9 -9.999 -99.9 -99.99 -9.99
2019/12/08 00:18 EST    1.60   1.95    9   37   10  31.8  42.1 1033.5 -9.9 -9.999 -99.9 -99.99 -9.99
2019/12/08 00:24 EST    1.49   1.83    7   40    9  31.6  42.1 1033.5 -9.9 -9.999 -99.9 -99.99 -9.99
2019/12/08 00:30 EST    1.40   1.72    7   50    9  31.8  42.1 1033.6 -9.9 -9.999 -99.9 -99.99 -9.99
2019/12/08 00:36 EST    1.31   1.61    8   46   11  31.6  42.3 1033.6 -9.9 -9.999 -99.9 -99.99 -9.99
2019/12/08 00:42 EST    1.24   1.51    7   52   10  31.5  42.1 1033.5 -9.9 -9.999 -99.9 -99.99 -9.99
2019/12/08 00:48 EST    1.17   1.42    6   58    7  31.3  42.3 1033.5 -9.9 -9.999 -99.9 -99.99 -9.99
2019/12/08 00:54 EST    1.11   1.35    5   80    7  31.3  42.3 1033.6 -9.9 -9.999 -99.9 -99.99 -9.99
2019/12/08 01:00 EST    1.06   1.27    2  105    6  31.1  42.1 1033.7 -9.9 -9.999 -99.9 -99.99 -9.99
2019/12/08 01:06 EST    1.01   1.22    3   95    4  30.7  42.1 1033.8 -9.9 -9.999 -99.9 -99.99 -9.99
2019/12/08 01:12 EST    0.98   1.18    2   87    4  30.6  42.1 1033.8 -9.9 -9.999 -99.9 -99.99 -9.99
2019/12/08 01:18 EST    0.94   1.14    2   91    3  30.6  42.1 1033.9 -9.9 -9.999 -99.9 -99.99 -9.99
2019/12/08 01:24 EST    0.91   1.10    3   89    4  30.6  42.1 1034.0 -9.9 -9.999 -99.9 -99.99 -9.99
2019/12/08 01:30 EST    0.89   1.08    2   97    4  30.6  42.1 1034.0 -9.9 -9.999 -99.9 -99.99 -9.99
2019/12/08 01:36 EST    0.86   1.06    2   93    5  30.2  42.1 1034.0 -9.9 -9.999 -99.9 -99.99 -9.99
2019/12/08 01:42 EST    0.84   1.05    2  115    4  30.2  41.7 1034.1 -9.9 -9.999 -99.9 -99.99 -9.99
2019/12/08 01:48 EST    0.83   1.04    2  130    3  30.0  41.7 1034.1 -9.9 -9.999 -99.9 -99.99 -9.99
2019/12/08 01:54 EST    0.81   1.02    1  150    3  29.8  41.7 1034.1 -9.9 -9.999 -99.9 -99.99 -9.99
2019/12/08 02:00 EST    0.80   1.01    2  129    2  29.7  41.7 1034.1 -9.9 -9.999 -99.9 -99.99 -9.99
2019/12/08 02:06 EST    0.79   1.00    3  142    4  29.7  42.1 1034.1 -9.9 -9.999 -99.9 -99.99 -9.99
2019/12/08 02:12 EST    0.77   0.99    2  146    4  29.7  42.1 1034.2 -9.9 -9.999 -99.9 -99.99 -9.99
2019/12/08 02:18 EST    0.77   0.97    1  154    3  29.3  42.1 1034.2 -9.9 -9.999 -99.9 -99.99 -9.99
2019/12/08 02:24 EST    0.76   0.97    2  145    3  29.3  42.1 1034.3 -9.9 -9.999 -99.9 -99.99 -9.99
2019/12/08 02:30 EST    0.76   0.96    1  163    2  29.1  42.1 1034.3 -9.9 -9.999 -99.9 -99.99 -9.99
2019/12/08 02:36 EST    0.76   0.96    2  162    4  29.1  41.9 1034.4 -9.9 -9.999 -99.9 -99.99 -9.99
2019/12/08 02:42 EST    0.76   0.96    3  163    4  28.9  42.1 1034.5 -9.9 -9.999 -99.9 -99.99 -9.99
2019/12/08 02:48 EST    0.77   0.95    2  150    4  28.9  42.1 1034.4 -9.9 -9.999 -99.9 -99.99 -9.99
2019/12/08 02:54 EST    0.79   0.96    3  135    5  28.9  42.1 1034.4 -9.9 -9.999 -99.9 -99.99 -9.99
2019/12/08 03:00 EST    0.81   0.97    4  132    5  28.8  42.1 1034.3 -9.9 -9.999 -99.9 -99.99 -9.99
2019/12/08 03:06 EST    0.84   0.99    4  132    5  28.8  42.1 1034.3 -9.9 -9.999 -99.9 -99.99 -9.99
2019/12/08 03:12 EST    0.88   1.02    3  136    5  28.6  42.1 1034.3 -9.9 -9.999 -99.9 -99.99 -9.99
2019/12/08 03:18 EST    0.93   1.07    2  152    4  28.4  42.1 1034.3 -9.9 -9.999 -99.9 -99.99 -9.99
2019/12/08 03:24 EST    1.00   1.12    3  151    6  28.4  42.1 1034.3 -9.9 -9.999 -99.9 -99.99 -9.99
2019/12/08 03:30 EST    1.07   1.18    3  148    5  28.2  42.1 1034.2 -9.9 -9.999 -99.9 -99.99 -9.99
2019/12/08 03:36 EST    1.15   1.25    3  138    4  28.2  41.9 1034.2 -9.9 -9.999 -99.9 -99.99 -9.99
2019/12/08 03:42 EST    1.25   1.34    3  141    5  28.0  41.9 1034.2 -9.9 -9.999 -99.9 -99.99 -9.99
2019/12/08 03:48 EST    1.36   1.44    3  132    4  28.2  41.9 1034.2 -9.9 -9.999 -99.9 -99.99 -9.99
2019/12/08 03:54 EST    1.48   1.55    3  131    4  28.2  41.9 1034.2 -9.9 -9.999 -99.9 -99.99 -9.99
2019/12/08 04:00 EST    1.62   1.67    3  135    4  28.4  41.9 1034.2 -9.9 -9.999 -99.9 -99.99 -9.99
2019/12/08 04:06 EST    1.77   1.81    3  129    4  28.6  41.9 1034.3 -9.9 -9.999 -99.9 -99.99 -9.99
2019/12/08 04:12 EST    1.93   1.98    2  132    3  28.8  41.9 1034.2 -9.9 -9.999 -99.9 -99.99 -9.99
2019/12/08 04:18 EST    2.10   2.16    3  128    3  28.8  41.7 1034.2 -9.9 -9.999 -99.9 -99.99 -9.99
2019/12/08 04:24 EST    2.29   2.35    2  183    3  28.8  41.7 1034.3 -9.9 -9.999 -99.9 -99.99 -9.99
2019/12/08 04:30 EST    2.48   2.55    2  184    3  28.6  41.9 1034.4 -9.9 -9.999 -99.9 -99.99 -9.99
2019/12/08 04:36 EST    2.68   2.77    2  175    3  28.0  42.1 1034.4 -9.9 -9.999 -99.9 -99.99 -9.99
2019/12/08 04:42 EST    2.89   2.99    2  145    4  28.2  42.1 1034.4 -9.9 -9.999 -99.9 -99.99 -9.99
2019/12/08 04:48 EST    3.11   3.21    3  168    3  28.4  42.3 1034.4 -9.9 -9.999 -99.9 -99.99 -9.99
2019/12/08 04:54 EST    3.33   3.44    2  157    3  28.2  42.3 1034.3 -9.9 -9.999 -99.9 -99.99 -9.99
2019/12/08 05:00 EST    3.55   3.66    2  143    3  28.0  42.4 1034.4 -9.9 -9.999 -99.9 -99.99 -9.99
2019/12/08 05:06 EST    3.77   3.88    4  128    4  28.0  42.3 1034.4 -9.9 -9.999 -99.9 -99.99 -9.99
2019/12/08 05:12 EST    3.99   4.09    3  126    4  28.0  42.3 1034.4 -9.9 -9.999 -99.9 -99.99 -9.99
2019/12/08 05:18 EST    4.21   4.31    2  122    3  28.2  42.3 1034.3 -9.9 -9.999 -99.9 -99.99 -9.99
2019/12/08 05:24 EST    4.43   4.52    2  130    2  28.0  42.4 1034.4 -9.9 -9.999 -99.9 -99.99 -9.99
2019/12/08 05:30 EST    4.64   4.73    2  129    3  28.2  42.4 1034.4 -9.9 -9.999 -99.9 -99.99 -9.99
2019/12/08 05:36 EST    4.85   4.93    3  125    3  28.2  42.4 1034.4 -9.9 -9.999 -99.9 -99.99 -9.99
2019/12/08 05:42 EST    5.05   5.13    3  136    4  28.2  42.4 1034.4 -9.9 -9.999 -99.9 -99.99 -9.99
2019/12/08 05:48 EST    5.24   5.31    2  146    4  28.6  42.6 1034.4 -9.9 -9.999 -99.9 -99.99 -9.99
2019/12/08 05:54 EST    5.42   5.48    3  145    5  28.0  42.6 1034.3 -9.9 -9.999 -99.9 -99.99 -9.99
2019/12/08 06:00 EST    5.59   5.65    4  128    5  27.7  42.6 1034.4 -9.9 -9.999 -99.9 -99.99 -9.99
2019/12/08 06:06 EST    5.75   5.80    3  131    4  27.7  42.6 1034.5 -9.9 -9.999 -99.9 -99.99 -9.99
2019/12/08 06:12 EST    5.90   5.95    3  131    4  27.5  42.6 1034.7 -9.9 -9.999 -99.9 -99.99 -9.99
2019/12/08 06:18 EST    6.05   6.09    4  129    5  27.5  42.6 1034.7 -9.9 -9.999 -99.9 -99.99 -9.99
2019/12/08 06:24 EST    6.18   6.22    3  125    5  27.7  42.6 1034.8 -9.9 -9.999 -99.9 -99.99 -9.99
2019/12/08 06:30 EST    6.30   6.36    4  130    5  27.7  42.8 1034.9 -9.9 -9.999 -99.9 -99.99 -9.99
2019/12/08 06:36 EST    6.41   6.48    4  126    4  27.5  42.8 1035.0 -9.9 -9.999 -99.9 -99.99 -9.99
2019/12/08 06:42 EST    6.51   6.59    3  132    6  27.7  42.8 1034.9 -9.9 -9.999 -99.9 -99.99 -9.99
2019/12/08 06:48 EST    6.60   6.71    3  126    5  27.9  42.8 1034.9 -9.9 -9.999 -99.9 -99.99 -9.99
2019/12/08 06:54 EST    6.68   6.81    4  128    5  27.5  42.8 1034.8 -9.9 -9.999 -99.9 -99.99 -9.99
2019/12/08 07:00 EST    6.75   6.90    4  117    5  27.7  42.8 1034.8 -9.9 -9.999 -99.9 -99.99 -9.99
2019/12/08 07:06 EST    6.82   6.98    4  122    5  27.7  42.8 1034.8 -9.9 -9.999 -99.9 -99.99 -9.99
2019/12/08 07:12 EST    6.89   7.05    3  126    5  27.5  42.8 1034.8 -9.9 -9.999 -99.9 -99.99 -9.99
2019/12/08 07:18 EST    6.94   7.12    3  126    4  27.5  42.8 1034.9 -9.9 -9.999 -99.9 -99.99 -9.99
2019/12/08 07:24 EST    6.99   7.17    2  128    4  27.5  42.8 1035.0 -9.9 -9.999 -99.9 -99.99 -9.99
2019/12/08 07:30 EST    7.04   7.21    3  125    5  27.7  42.8 1035.0 -9.9 -9.999 -99.9 -99.99 -9.99
2019/12/08 07:36 EST    7.08   7.24    3  119    4  28.0  42.8 1035.0 -9.9 -9.999 -99.9 -99.99 -9.99
2019/12/08 07:42 EST    7.12   7.27    3  121    4  27.9  42.8 1035.1 -9.9 -9.999 -99.9 -99.99 -9.99
2019/12/08 07:48 EST    7.16   7.29    3  121    4  28.0  42.8 1035.1 -9.9 -9.999 -99.9 -99.99 -9.99
2019/12/08 07:54 EST    7.19   7.30    3  140    4  28.4  42.8 1035.1 -9.9 -9.999 -99.9 -99.99 -9.99
2019/12/08 08:00 EST    7.22   7.31    2  123    2  28.8  42.8 1035.2 -9.9 -9.999 -99.9 -99.99 -9.99
2019/12/08 08:06 EST    7.25   7.32    1  147    2  29.3  42.6 1035.2 -9.9 -9.999 -99.9 -99.99 -9.99
2019/12/08 08:12 EST    7.27   7.33    1  178    2  29.7  42.4 1035.3 -9.9 -9.999 -99.9 -99.99 -9.99
2019/12/08 08:18 EST    7.30   7.33    3  167    4  30.2  42.3 1035.4 -9.9 -9.999 -99.9 -99.99 -9.99
2019/12/08 08:24 EST    7.31   7.33    3  170    4  29.8  42.3 1035.4 -9.9 -9.999 -99.9 -99.99 -9.99
2019/12/08 08:30 EST    7.33   7.33    3  163    5  30.2  42.1 1035.3 -9.9 -9.999 -99.9 -99.99 -9.99
2019/12/08 08:36 EST    7.34   7.33    2  184    4  30.2  42.1 1035.3 -9.9 -9.999 -99.9 -99.99 -9.99
2019/12/08 08:42 EST    7.34   7.33    3  179    4  30.6  42.3 1035.3 -9.9 -9.999 -99.9 -99.99 -9.99
2019/12/08 08:48 EST    7.34   7.31    5  202    6  30.6  42.3 1035.3 -9.9 -9.999 -99.9 -99.99 -9.99
2019/12/08 08:54 EST    7.33   7.28    5  200    7  30.4  42.4 1035.2 -9.9 -9.999 -99.9 -99.99 -9.99
2019/12/08 09:00 EST    7.32   7.25    4  193    6  30.6  42.4 1035.3 -9.9 -9.999 -99.9 -99.99 -9.99
2019/12/08 09:06 EST    7.29   7.23    5  190    7  30.9  42.4 1035.3 -9.9 -9.999 -99.9 -99.99 -9.99
2019/12/08 09:12 EST    7.26   7.20    5  189    8  30.9  42.4 1035.2 -9.9 -9.999 -99.9 -99.99 -9.99
2019/12/08 09:18 EST    7.22   7.15    6  203    8  31.3  42.4 1035.1 -9.9 -9.999 -99.9 -99.99 -9.99
2019/12/08 09:24 EST    7.17   7.10    4  194    8  31.1  42.4 1035.1 -9.9 -9.999 -99.9 -99.99 -9.99
2019/12/08 09:30 EST    7.12   7.04    5  173    6  31.3  42.4 1035.1 -9.9 -9.999 -99.9 -99.99 -9.99
2019/12/08 09:36 EST    7.05   6.99    4  200    6  32.0  42.4 1035.1 -9.9 -9.999 -99.9 -99.99 -9.99
2019/12/08 09:42 EST    6.97   6.92    5  208    8  31.6  42.6 1035.1 -9.9 -9.999 -99.9 -99.99 -9.99
2019/12/08 09:48 EST    6.88   6.81    6  204    7  32.2  42.6 1035.0 -9.9 -9.999 -99.9 -99.99 -9.99
2019/12/08 09:54 EST    6.78   6.72    5  195    7  32.4  42.6 1034.9 -9.9 -9.999 -99.9 -99.99 -9.99
2019/12/08 10:00 EST    6.66   6.61    4  199    8  32.5  42.8 1035.0 -9.9 -9.999 -99.9 -99.99 -9.99
2019/12/08 10:06 EST    6.54   6.49    8  203    9  32.7  42.8 1034.9 -9.9 -9.999 -99.9 -99.99 -9.99
2019/12/08 10:12 EST    6.41   6.36    7  202    9  33.1  42.8 1034.8 -9.9 -9.999 -99.9 -99.99 -9.99
2019/12/08 10:18 EST    6.26   6.22    7  207    9  32.9  42.8 1034.8 -9.9 -9.999 -99.9 -99.99 -9.99
2019/12/08 10:24 EST    6.11   6.08    6  205    8  33.3  42.8 1034.8 -9.9 -9.999 -99.9 -99.99 -9.99
2019/12/08 10:30 EST    5.94   5.94    7  212    9  33.4  43.0 1034.8 -9.9 -9.999 -99.9 -99.99 -9.99
2019/12/08 10:36 EST    5.77   5.79    9  200   11  33.6  43.0 1034.7 -9.9 -9.999 -99.9 -99.99 -9.99
2019/12/08 10:42 EST    5.59   5.61    8  210   10  34.2  42.6 1034.5 -9.9 -9.999 -99.9 -99.99 -9.99
2019/12/08 10:48 EST    5.40   5.43    8  210   10  34.3  42.6 1034.4 -9.9 -9.999 -99.9 -99.99 -9.99
2019/12/08 10:54 EST    5.20   5.25    9  206   11  34.3  42.6 1034.2 -9.9 -9.999 -99.9 -99.99 -9.99
2019/12/08 11:00 EST    5.00   5.06    9  216   12  34.9  42.6 1034.1 -9.9 -9.999 -99.9 -99.99 -9.99
2019/12/08 11:06 EST    4.80   4.87   10  203   12  35.1  42.6 1034.0 -9.9 -9.999 -99.9 -99.99 -9.99
2019/12/08 11:12 EST    4.59   4.66   10  207   12  35.2  42.6 1033.9 -9.9 -9.999 -99.9 -99.99 -9.99
2019/12/08 11:18 EST    4.37   4.47    9  208   13  35.4  42.6 1033.7 -9.9 -9.999 -99.9 -99.99 -9.99
2019/12/08 11:24 EST    4.16   4.24   10  199   11  35.4  42.6 1033.6 -9.9 -9.999 -99.9 -99.99 -9.99
2019/12/08 11:30 EST    3.95   4.03   10  198   12  35.8  42.6 1033.5 -9.9 -9.999 -99.9 -99.99 -9.99
2019/12/08 11:36 EST    3.74   3.82   11  204   12  36.1  42.6 1033.5 -9.9 -9.999 -99.9 -99.99 -9.99
2019/12/08 11:42 EST    3.53   3.60   11  204   12  36.3  42.6 1033.2 -9.9 -9.999 -99.9 -99.99 -9.99
2019/12/08 11:48 EST    3.32   3.38    8  202   14  36.7  42.6 1033.1 -9.9 -9.999 -99.9 -99.99 -9.99
2019/12/08 11:54 EST    3.12   3.20    8  198   12  37.0  42.6 1033.1 -9.9 -9.999 -99.9 -99.99 -9.99
2019/12/08 12:00 EST    2.92   2.99   12  212   14  37.2  42.4 1033.0 -9.9 -9.999 -99.9 -99.99 -9.99
2019/12/08 12:06 EST    2.74   2.80   11  214   13  37.4  42.4 1033.0 -9.9 -9.999 -99.9 -99.99 -9.99
2019/12/08 12:12 EST    2.55   2.61   11  211   15  37.4  42.4 1032.9 -9.9 -9.999 -99.9 -99.99 -9.99
2019/12/08 12:18 EST    2.38   2.40   13  231   15  37.4  42.4 1032.8 -9.9 -9.999 -99.9 -99.99 -9.99
2019/12/08 12:24 EST    2.21   2.24   13  234   16  37.6  42.4 1032.7 -9.9 -9.999 -99.9 -99.99 -9.99
2019/12/08 12:30 EST    2.06   2.06   12  218   15  37.8  42.4 1032.6 -9.9 -9.999 -99.9 -99.99 -9.99
2019/12/08 12:36 EST    1.91   1.89   13  238   15  37.8  42.6 1032.5 -9.9 -9.999 -99.9 -99.99 -9.99
2019/12/08 12:42 EST    1.77   1.73   13  238   17  37.8  42.4 1032.5 -9.9 -9.999 -99.9 -99.99 -9.99
2019/12/08 12:48 EST    1.64   1.59   13  242   16  37.9  42.4 1032.3 -9.9 -9.999 -99.9 -99.99 -9.99
2019/12/08 12:54 EST    1.52   1.45   15  240   19  37.9  42.4 1032.2 -9.9 -9.999 -99.9 -99.99 -9.99
2019/12/08 13:00 EST    1.41   1.31   13  226   15  38.1  42.4 1032.1 -9.9 -9.999 -99.9 -99.99 -9.99
2019/12/08 13:06 EST    1.31   1.20   14  213   17  38.1  42.4 1032.0 -9.9 -9.999 -99.9 -99.99 -9.99
2019/12/08 13:12 EST    1.22   1.07   14  233   17  38.1  42.3 1032.0 -9.9 -9.999 -99.9 -99.99 -9.99
2019/12/08 13:18 EST    1.13   0.99   14  216   17  38.3  42.3 1031.9 -9.9 -9.999 -99.9 -99.99 -9.99
2019/12/08 13:24 EST    1.06   0.88   12  233   17  38.5  42.3 1031.8 -9.9 -9.999 -99.9 -99.99 -9.99
2019/12/08 13:30 EST    0.98   0.81   16  216   17  38.7  42.3 1031.8 -9.9 -9.999 -99.9 -99.99 -9.99
2019/12/08 13:36 EST    0.92   0.73   15  228   17  38.7  42.3 1031.8 -9.9 -9.999 -99.9 -99.99 -9.99
2019/12/08 13:42 EST    0.86   0.68   15  232   21  38.7  42.3 1031.7 -9.9 -9.999 -99.9 -99.99 -9.99
2019/12/08 13:48 EST    0.80   0.62   14  233   19  38.7  42.4 1031.8 -9.9 -9.999 -99.9 -99.99 -9.99
2019/12/08 13:54 EST    0.75   0.58   14  235   18  38.8  42.3 1031.8 -9.9 -9.999 -99.9 -99.99 -9.99
2019/12/08 14:00 EST    0.70   0.55   17  224   20  39.0  42.3 1031.8 -9.9 -9.999 -99.9 -99.99 -9.99
2019/12/08 14:06 EST    0.66   0.52   15  237   21  39.0  42.1 1031.8 -9.9 -9.999 -99.9 -99.99 -9.99
2019/12/08 14:12 EST    0.61   0.49   13  225   18  39.0  42.1 1031.8 -9.9 -9.999 -99.9 -99.99 -9.99
2019/12/08 14:18 EST    0.57   0.48   13  232   21  39.2  42.1 1031.7 -9.9 -9.999 -99.9 -99.99 -9.99
2019/12/08 14:24 EST    0.53   0.45   14  218   16  39.4  42.1 1031.7 -9.9 -9.999 -99.9 -99.99 -9.99
2019/12/08 14:30 EST    0.49   0.43   14  219   17  39.4  41.9 1031.8 -9.9 -9.999 -99.9 -99.99 -9.99
2019/12/08 14:36 EST    0.46   0.40   15  213   18  39.4  41.9 1031.6 -9.9 -9.999 -99.9 -99.99 -9.99
2019/12/08 14:42 EST    0.42   0.38   18  219   20  39.4  41.9 1031.6 -9.9 -9.999 -99.9 -99.99 -9.99
2019/12/08 14:48 EST    0.39   0.35   16  225   21  39.6  41.7 1031.5 -9.9 -9.999 -99.9 -99.99 -9.99
2019/12/08 14:54 EST    0.37   0.30   15  225   20  39.7  41.9 1031.4 -9.9 -9.999 -99.9 -99.99 -9.99
2019/12/08 15:00 EST    0.34   0.27   17  220   20  39.7  41.7 1031.4 -9.9 -9.999 -99.9 -99.99 -9.99
2019/12/08 15:06 EST    0.32   0.23   16  229   20  39.7  41.7 1031.3 -9.9 -9.999 -99.9 -99.99 -9.99
2019/12/08 15:12 EST    0.31   0.22   14  226   19  39.9  41.7 1031.3 -9.9 -9.999 -99.9 -99.99 -9.99
2019/12/08 15:18 EST    0.30   0.17   17  214   18  39.9  41.5 1031.2 -9.9 -9.999 -99.9 -99.99 -9.99
2019/12/08 15:24 EST    0.30   0.16   15  229   19  39.9  41.5 1031.1 -9.9 -9.999 -99.9 -99.99 -9.99
2019/12/08 15:30 EST    0.31   0.15   16  231   18  40.1  41.5 1031.1 -9.9 -9.999 -99.9 -99.99 -9.99
2019/12/08 15:36 EST    0.33   0.14   16  226   20  40.1  41.5 1031.1 -9.9 -9.999 -99.9 -99.99 -9.99
2019/12/08 15:42 EST    0.36   0.15   15  225   22  40.1  41.7 1031.1 -9.9 -9.999 -99.9 -99.99 -9.99
2019/12/08 15:48 EST    0.40   0.16   17  225   21  40.3  41.5 1031.1 -9.9 -9.999 -99.9 -99.99 -9.99
2019/12/08 15:54 EST    0.45   0.22   15  221   18  40.3  41.5 1031.0 -9.9 -9.999 -99.9 -99.99 -9.99
2019/12/08 16:00 EST    0.52   0.25   15  224   18  40.3  41.4 1031.0 -9.9 -9.999 -99.9 -99.99 -9.99
2019/12/08 16:06 EST    0.60   0.30   16  228   18  40.5  41.5 1031.0 -9.9 -9.999 -99.9 -99.99 -9.99
2019/12/08 16:12 EST    0.69   0.38   13  225   17  40.5  41.4 1030.9 -9.9 -9.999 -99.9 -99.99 -9.99
2019/12/08 16:18 EST    0.80   0.47   15  228   19  40.6  41.5 1031.0 -9.9 -9.999 -99.9 -99.99 -9.99
2019/12/08 16:24 EST    0.92   0.59   13  225   17  40.6  41.4 1030.8 -9.9 -9.999 -99.9 -99.99 -9.99
2019/12/08 16:30 EST    1.06   0.70   12  231   16  40.6  41.2 1031.0 -9.9 -9.999 -99.9 -99.99 -9.99
2019/12/08 16:36 EST    1.21   0.84   13  227   18  40.8  41.4 1031.0 -9.9 -9.999 -99.9 -99.99 -9.99
2019/12/08 16:42 EST    1.37   1.01   12  221   15  40.8  41.4 1030.9 -9.9 -9.999 -99.9 -99.99 -9.99
2019/12/08 16:48 EST    1.54   1.19   12  228   15  40.8  42.1 1030.7 -9.9 -9.999 -99.9 -99.99 -9.99
2019/12/08 16:54 EST    1.72   1.38   12  223   16  41.0  42.8 1030.5 -9.9 -9.999 -99.9 -99.99 -9.99
2019/12/08 17:00 EST    1.92   1.57   14  228   16  41.0  42.8 1030.4 -9.9 -9.999 -99.9 -99.99 -9.99
2019/12/08 17:06 EST    2.12   1.78   11  237   14  41.0  42.8 1030.3 -9.9 -9.999 -99.9 -99.99 -9.99
2019/12/08 17:12 EST    2.33   2.01   11  242   14  41.0  42.8 1030.3 -9.9 -9.999 -99.9 -99.99 -9.99
2019/12/08 17:18 EST    2.54   2.24   10  245   14  41.0  42.6 1030.4 -9.9 -9.999 -99.9 -99.99 -9.99
2019/12/08 17:24 EST    2.76   2.45   11  238   13  41.0  42.4 1030.4 -9.9 -9.999 -99.9 -99.99 -9.99
2019/12/08 17:30 EST    2.98   2.69   11  239   14  41.0  42.4 1030.3 -9.9 -9.999 -99.9 -99.99 -9.99
2019/12/08 17:36 EST    3.21   2.94    9  245   12  41.0  42.4 1030.4 -9.9 -9.999 -99.9 -99.99 -9.99
2019/12/08 17:42 EST    3.43   3.18    8  244   10  41.0  42.3 1030.5 -9.9 -9.999 -99.9 -99.99 -9.99
2019/12/08 17:48 EST    3.65   3.41    8  246   10  41.0  42.1 1030.4 -9.9 -9.999 -99.9 -99.99 -9.99
2019/12/08 17:54 EST    3.86   3.64    7  246   10  41.0  42.4 1030.4 -9.9 -9.999 -99.9 -99.99 -9.99
2019/12/08 18:00 EST    4.07   3.88    9  243   10  41.0  42.6 1030.4 -9.9 -9.999 -99.9 -99.99 -9.99
2019/12/08 18:06 EST    4.27   4.10    8  243   10  40.8  42.6 1030.4 -9.9 -9.999 -99.9 -99.99 -9.99
2019/12/08 18:12 EST    4.47   4.32    8  245   10  40.8  42.6 1030.4 -9.9 -9.999 -99.9 -99.99 -9.99
2019/12/08 18:18 EST    4.65   4.54    8  240   10  41.0  42.6 1030.5 -9.9 -9.999 -99.9 -99.99 -9.99
2019/12/08 18:24 EST    4.83   4.74    8  244   10  40.8  42.6 1030.4 -9.9 -9.999 -99.9 -99.99 -9.99
2019/12/08 18:30 EST    5.00   4.95    8  245    9  41.0  42.6 1030.4 -9.9 -9.999 -99.9 -99.99 -9.99
2019/12/08 18:36 EST    5.16   5.12    8  244    9  40.8  42.8 1030.4 -9.9 -9.999 -99.9 -99.99 -9.99
2019/12/08 18:42 EST    5.31   5.30    7  246    9  40.8  42.3 1030.5 -9.9 -9.999 -99.9 -99.99 -9.99
2019/12/08 18:48 EST    5.44   5.47    6  242    8  41.0  42.4 1030.5 -9.9 -9.999 -99.9 -99.99 -9.99
2019/12/08 18:54 EST    5.57   5.62    6  237    9  41.0  42.6 1030.5 -9.9 -9.999 -99.9 -99.99 -9.99
2019/12/08 19:00 EST    5.69   5.78    6  241    8  41.0  42.8 1030.4 -9.9 -9.999 -99.9 -99.99 -9.99
2019/12/08 19:06 EST    5.80   5.91    6  238    7  41.0  43.0 1030.4 -9.9 -9.999 -99.9 -99.99 -9.99
2019/12/08 19:12 EST    5.90   6.04    6  239    7  40.8  42.8 1030.4 -9.9 -9.999 -99.9 -99.99 -9.99
2019/12/08 19:18 EST    5.99   6.15    5  236    6  40.8  42.8 1030.3 -9.9 -9.999 -99.9 -99.99 -9.99
2019/12/08 19:24 EST    6.07   6.26    5  231    6  40.8  42.8 1030.3 -9.9 -9.999 -99.9 -99.99 -9.99
2019/12/08 19:30 EST    6.15   6.36    5  227    6  40.6  42.8 1030.2 -9.9 -9.999 -99.9 -99.99 -9.99
2019/12/08 19:36 EST    6.22   6.43    5  219    5  40.8  42.8 1030.2 -9.9 -9.999 -99.9 -99.99 -9.99
2019/12/08 19:42 EST    6.28   6.52    4  206    6  40.6  42.8 1030.1 -9.9 -9.999 -99.9 -99.99 -9.99
2019/12/08 19:48 EST    6.34   6.58    4  200    5  40.1  43.0 1030.1 -9.9 -9.999 -99.9 -99.99 -9.99
2019/12/08 19:54 EST    6.39   6.64    4  203    5  39.6  43.0 1030.0 -9.9 -9.999 -99.9 -99.99 -9.99
2019/12/08 20:00 EST    6.44   6.69    4  191    4  39.4  43.0 1029.9 -9.9 -9.999 -99.9 -99.99 -9.99
2019/12/08 20:06 EST    6.49   6.73    4  189    5  39.4  43.0 1029.8 -9.9 -9.999 -99.9 -99.99 -9.99
2019/12/08 20:12 EST    6.53   6.75    4  186    5  39.4  43.0 1029.6 -9.9 -9.999 -99.9 -99.99 -9.99
2019/12/08 20:18 EST    6.57   6.77    4  191    5  39.4  43.0 1029.6 -9.9 -9.999 -99.9 -99.99 -9.99
2019/12/08 20:24 EST    6.60   6.79    3  192    4  39.4  43.0 1029.5 -9.9 -9.999 -99.9 -99.99 -9.99
2019/12/08 20:30 EST    6.63   6.80    3  191    4  39.4  43.0 1029.4 -9.9 -9.999 -99.9 -99.99 -9.99
2019/12/08 20:36 EST    6.66   6.81    2  177    3  39.6  43.0 1029.4 -9.9 -9.999 -99.9 -99.99 -9.99
2019/12/08 20:42 EST    6.69   6.83    1  205    2  39.7  43.0 1029.4 -9.9 -9.999 -99.9 -99.99 -9.99
2019/12/08 20:48 EST    6.71   6.84    1  201    2  39.6  43.0 1029.4 -9.9 -9.999 -99.9 -99.99 -9.99
2019/12/08 20:54 EST    6.72   6.84    1  201    1  39.2  42.8 1029.4 -9.9 -9.999 -99.9 -99.99 -9.99
2019/12/08 21:00 EST    6.74   6.84    2  204    2  39.0  42.8 1029.5 -9.9 -9.999 -99.9 -99.99 -9.99
2019/12/08 21:06 EST    6.74   6.85    2  191    2  39.2  42.6 1029.4 -9.9 -9.999 -99.9 -99.99 -9.99
2019/12/08 21:12 EST    6.75   6.85    1  197    2  39.2  42.4 1029.4 -9.9 -9.999 -99.9 -99.99 -9.99
2019/12/08 21:18 EST    6.74   6.85    1  187    2  39.4  42.6 1029.5 -9.9 -9.999 -99.9 -99.99 -9.99
2019/12/08 21:24 EST    6.73   6.84    2  165    3  39.2  42.6 1029.5 -9.9 -9.999 -99.9 -99.99 -9.99
2019/12/08 21:30 EST    6.71   6.82    2  171    4  39.4  42.6 1029.2 -9.9 -9.999 -99.9 -99.99 -9.99
2019/12/08 21:36 EST    6.68   6.81    3  186    4  39.7  42.4 1029.2 -9.9 -9.999 -99.9 -99.99 -9.99
2019/12/08 21:42 EST    6.64   6.79    3  187    3  40.3  42.4 1029.3 -9.9 -9.999 -99.9 -99.99 -9.99
2019/12/08 21:48 EST    6.60   6.75    3  186    4  40.3  42.6 1029.1 -9.9 -9.999 -99.9 -99.99 -9.99
2019/12/08 21:54 EST    6.54   6.71    3  188    4  40.3  42.4 1029.0 -9.9 -9.999 -99.9 -99.99 -9.99
2019/12/08 22:00 EST    6.48   6.65    3  177    4  40.3  42.6 1028.9 -9.9 -9.999 -99.9 -99.99 -9.99
2019/12/08 22:06 EST    6.40   6.59    3  180    4  40.5  42.6 1028.7 -9.9 -9.999 -99.9 -99.99 -9.99
2019/12/08 22:12 EST    6.31   6.52    4  175    5  40.5  42.4 1028.6 -9.9 -9.999 -99.9 -99.99 -9.99
2019/12/08 22:18 EST    6.21   6.44    2  167    4  40.5  42.4 1028.4 -9.9 -9.999 -99.9 -99.99 -9.99
2019/12/08 22:24 EST    6.10   6.35    2  172    4  40.1  42.8 1028.3 -9.9 -9.999 -99.9 -99.99 -9.99
2019/12/08 22:30 EST    5.98   6.25    2  190    4  40.1  43.0 1028.3 -9.9 -9.999 -99.9 -99.99 -9.99
2019/12/08 22:36 EST    5.85   6.13    3  200    4  40.3  43.0 1028.2 -9.9 -9.999 -99.9 -99.99 -9.99
2019/12/08 22:42 EST    5.71   5.99    3  192    4  40.3  43.2 1028.1 -9.9 -9.999 -99.9 -99.99 -9.99
2019/12/08 22:48 EST    5.56   5.86    4  193    5  40.5  43.2 1028.1 -9.9 -9.999 -99.9 -99.99 -9.99
2019/12/08 22:54 EST    5.40   5.72    4  195    5  40.3  43.2 1028.0 -9.9 -9.999 -99.9 -99.99 -9.99
2019/12/08 23:00 EST    5.23   5.55    3  208    5  40.5  43.2 1027.9 -9.9 -9.999 -99.9 -99.99 -9.99
2019/12/08 23:06 EST    5.05   5.39    4  203    4  40.1  43.2 1028.0 -9.9 -9.999 -99.9 -99.99 -9.99
2019/12/08 23:12 EST    4.87   5.22    3  200    4  39.9  43.0 1028.0 -9.9 -9.999 -99.9 -99.99 -9.99
2019/12/08 23:18 EST    4.68   5.04    3  200    3  39.9  42.6 1027.8 -9.9 -9.999 -99.9 -99.99 -9.99
2019/12/08 23:24 EST    4.48   4.86    2  214    3  40.3  42.6 1027.8 -9.9 -9.999 -99.9 -99.99 -9.99
2019/12/08 23:30 EST    4.28   4.67    2  205    3  40.5  42.6 1027.8 -9.9 -9.999 -99.9 -99.99 -9.99
2019/12/08 23:36 EST    4.08   4.48    3  202    3  40.1  42.6 1027.7 -9.9 -9.999 -99.9 -99.99 -9.99
2019/12/08 23:42 EST    3.88   4.29    2  205    3  40.3  42.6 1027.6 -9.9 -9.999 -99.9 -99.99 -9.99
2019/12/08 23:48 EST    3.67   4.09    2  196    3  40.3  42.6 1027.6 -9.9 -9.999 -99.9 -99.99 -9.99
2019/12/08 23:54 EST    3.46   3.90    2  208    3  40.5  42.6 1027.6 -9.9 -9.999 -99.9 -99.99 -9.99
2019/12/09 00:00 EST    3.26   3.70    2  216    2  40.5  42.6 1027.7 -9.9 -9.999 -99.9 -99.99 -9.99
2019/12/09 00:06 EST    3.06   3.51    2  183    2  40.3  42.6 1027.6 -9.9 -9.999 -99.9 -99.99 -9.99
2019/12/09 00:12 EST    2.86   3.31    1  239    2  40.5  42.6 1027.6 -9.9 -9.999 -99.9 -99.99 -9.99
2019/12/09 00:18 EST    2.67   3.12    1  231    2  40.6  42.6 1027.7 -9.9 -9.999 -99.9 -99.99 -9.99
2019/12/09 00:24 EST    2.49   2.93    2  181    2  40.5  42.6 1027.6 -9.9 -9.999 -99.9 -99.99 -9.99
2019/12/09 00:30 EST    2.31   2.74    2  196    3  40.3  42.6 1027.5 -9.9 -9.999 -99.9 -99.99 -9.99
2019/12/09 00:36 EST    2.14   2.56    1  186    2  40.5  42.6 1027.4 -9.9 -9.999 -99.9 -99.99 -9.99
2019/12/09 00:42 EST    1.98   2.39    1  199    1  40.5  42.6 1027.3 -9.9 -9.999 -99.9 -99.99 -9.99
2019/12/09 00:48 EST    1.83   2.22    1  193    2  40.5  42.6 1027.3 -9.9 -9.999 -99.9 -99.99 -9.99
2019/12/09 00:54 EST    1.69   2.05    2  187    2  40.5  42.8 1027.3 -9.9 -9.999 -99.9 -99.99 -9.99
2019/12/09 01:00 EST    1.56   1.90    1  182    2  40.5  42.8 1027.2 -9.9 -9.999 -99.9 -99.99 -9.99
2019/12/09 01:06 EST    1.43   1.75    1  138    2  40.3  42.6 1027.0 -9.9 -9.999 -99.9 -99.99 -9.99
2019/12/09 01:12 EST    1.32   1.60    1  145    2  40.1  42.6 1026.9 -9.9 -9.999 -99.9 -99.99 -9.99
2019/12/09 01:18 EST    1.22   1.47    1  156    2  39.9  42.4 1026.8 -9.9 -9.999 -99.9 -99.99 -9.99
2019/12/09 01:24 EST    1.13   1.35    1  107    2  39.9  42.3 1026.8 -9.9 -9.999 -99.9 -99.99 -9.99
2019/12/09 01:30 EST    1.05   1.23    1  140    2  39.9  42.3 1026.6 -9.9 -9.999 -99.9 -99.99 -9.99
2019/12/09 01:36 EST    0.98   1.14    1  139    2  39.9  42.4 1026.6 -9.9 -9.999 -99.9 -99.99 -9.99
2019/12/09 01:42 EST    0.92   1.05    2  131    3  39.7  42.3 1026.6 -9.9 -9.999 -99.9 -99.99 -9.99
2019/12/09 01:48 EST    0.87   0.98    2  120    3  39.9  42.1 1026.5 -9.9 -9.999 -99.9 -99.99 -9.99
2019/12/09 01:54 EST    0.82   0.92    2  136    3  39.7  41.7 1026.4 -9.9 -9.999 -99.9 -99.99 -9.99
2019/12/09 02:00 EST    0.78   0.88    2  120    4  39.9  41.5 1026.2 -9.9 -9.999 -99.9 -99.99 -9.99
2019/12/09 02:06 EST    0.75   0.85    1  116    2  39.7  41.5 1026.2 -9.9 -9.999 -99.9 -99.99 -9.99
2019/12/09 02:12 EST    0.72   0.83    0  136    2  39.7  41.9 1026.2 -9.9 -9.999 -99.9 -99.99 -9.99
2019/12/09 02:18 EST    0.70   0.82    3  135    3  39.9  41.9 1026.2 -9.9 -9.999 -99.9 -99.99 -9.99
2019/12/09 02:24 EST    0.68   0.81    3  124    3  40.1  41.7 1026.0 -9.9 -9.999 -99.9 -99.99 -9.99
2019/12/09 02:30 EST    0.67   0.79    3  120    3  39.9  41.4 1026.0 -9.9 -9.999 -99.9 -99.99 -9.99
2019/12/09 02:36 EST    0.66   0.79    4  124    4  39.9  41.4 1025.9 -9.9 -9.999 -99.9 -99.99 -9.99
2019/12/09 02:42 EST    0.65   0.78    4  127    5  39.9  41.5 1025.7 -9.9 -9.999 -99.9 -99.99 -9.99
2019/12/09 02:48 EST    0.64   0.78    2  104    5  40.3  41.4 1025.5 -9.9 -9.999 -99.9 -99.99 -9.99
2019/12/09 02:54 EST    0.64   0.78    2   96    3  40.3  41.5 1025.6 -9.9 -9.999 -99.9 -99.99 -9.99
2019/12/09 03:00 EST    0.64   0.78    2   80    3  40.3  41.7 1025.6 -9.9 -9.999 -99.9 -99.99 -9.99
2019/12/09 03:06 EST    0.64   0.78    1   67    3  40.3  41.5 1025.5 -9.9 -9.999 -99.9 -99.99 -9.99
2019/12/09 03:12 EST    0.64   0.79    2   74    4  40.5  41.7 1025.6 -9.9 -9.999 -99.9 -99.99 -9.99
2019/12/09 03:18 EST    0.65   0.79    2  106    5  40.5  41.7 1025.4 -9.9 -9.999 -99.9 -99.99 -9.99
2019/12/09 03:24 EST    0.66   0.83    3  107    4  40.6  41.7 1025.2 -9.9 -9.999 -99.9 -99.99 -9.99
2019/12/09 03:30 EST    0.67   0.85    3  103    4  40.6  41.9 1025.1 -9.9 -9.999 -99.9 -99.99 -9.99
2019/12/09 03:36 EST    0.70   0.88    3  108    4  40.6  41.9 1024.9 -9.9 -9.999 -99.9 -99.99 -9.99
2019/12/09 03:42 EST    0.72   0.91    3  117    5  40.6  41.7 1024.8 -9.9 -9.999 -99.9 -99.99 -9.99
2019/12/09 03:48 EST    0.76   0.95    4  129    5  40.6  41.9 1024.8 -9.9 -9.999 -99.9 -99.99 -9.99
2019/12/09 03:54 EST    0.80   1.00    1   80    4  40.6  41.9 1024.8 -9.9 -9.999 -99.9 -99.99 -9.99
2019/12/09 04:00 EST    0.85   1.04    3   91    4  40.6  41.9 1024.7 -9.9 -9.999 -99.9 -99.99 -9.99
2019/12/09 04:06 EST    0.91   1.10    4  111    6  40.6  41.9 1024.5 -9.9 -9.999 -99.9 -99.99 -9.99
2019/12/09 04:12 EST    0.99   1.18    4   98    5  40.6  42.1 1024.4 -9.9 -9.999 -99.9 -99.99 -9.99
2019/12/09 04:18 EST    1.07   1.25    4  113    6  40.6  42.1 1024.3 -9.9 -9.999 -99.9 -99.99 -9.99
2019/12/09 04:24 EST    1.17   1.35    4  112    6  40.5  42.4 1024.1 -9.9 -9.999 -99.9 -99.99 -9.99
2019/12/09 04:30 EST    1.28   1.45    4  112    6  40.5  42.8 1024.0 -9.9 -9.999 -99.9 -99.99 -9.99
2019/12/09 04:36 EST    1.40   1.58    6  113    7  40.3  42.8 1023.9 -9.9 -9.999 -99.9 -99.99 -9.99
2019/12/09 04:42 EST    1.53   1.72    5  114    7  40.3  42.8 1023.8 -9.9 -9.999 -99.9 -99.99 -9.99
2019/12/09 04:48 EST    1.68   1.88    4  108    6  40.5  43.2 1023.8 -9.9 -9.999 -99.9 -99.99 -9.99
2019/12/09 04:54 EST    1.84   2.04    4   98    6  40.5  43.2 1023.7 -9.9 -9.999 -99.9 -99.99 -9.99
2019/12/09 05:00 EST    2.02   2.22    4   87    6  40.6  43.2 1023.7 -9.9 -9.999 -99.9 -99.99 -9.99
2019/12/09 05:06 EST    2.20   2.41    3   49    5  40.6  43.2 1023.6 -9.9 -9.999 -99.9 -99.99 -9.99
2019/12/09 05:12 EST    2.40   2.61    3   63    4  40.6  43.2 1023.6 -9.9 -9.999 -99.9 -99.99 -9.99
2019/12/09 05:18 EST    2.61   2.80    2   79    4  40.6  43.0 1023.6 -9.9 -9.999 -99.9 -99.99 -9.99
2019/12/09 05:24 EST    2.82   2.99    3   82    4  40.6  43.0 1023.5 -9.9 -9.999 -99.9 -99.99 -9.99
2019/12/09 05:30 EST    3.04   3.19    4   89    5  40.8  43.0 1023.3 -9.9 -9.999 -99.9 -99.99 -9.99
2019/12/09 05:36 EST    3.27   3.40    3   87    5  40.8  42.8 1023.1 -9.9 -9.999 -99.9 -99.99 -9.99
2019/12/09 05:42 EST    3.50   3.60    4   88    5  40.8  42.8 1023.1 -9.9 -9.999 -99.9 -99.99 -9.99
2019/12/09 05:48 EST    3.74   3.80    4   92    5  41.0  42.6 1023.0 -9.9 -9.999 -99.9 -99.99 -9.99
2019/12/09 05:54 EST    3.98   4.00    4   99    5  41.0  42.6 1022.8 -9.9 -9.999 -99.9 -99.99 -9.99
2019/12/09 06:00 EST    4.21   4.20    4  103    7  41.0  42.6 1022.7 -9.9 -9.999 -99.9 -99.99 -9.99
2019/12/09 06:06 EST    4.45   4.40    5  107    7  41.0  42.6 1022.6 -9.9 -9.999 -99.9 -99.99 -9.99
2019/12/09 06:12 EST    4.68   4.59    6  102    8  41.0  42.8 1022.4 -9.9 -9.999 -99.9 -99.99 -9.99
2019/12/09 06:18 EST    4.90   4.78    5   97    7  41.0  42.8 1022.3 -9.9 -9.999 -99.9 -99.99 -9.99
2019/12/09 06:24 EST    5.12   4.96    4   92    7  41.0  43.0 1022.1 -9.9 -9.999 -99.9 -99.99 -9.99
2019/12/09 06:30 EST    5.33   5.14    5   88    7  41.0  43.0 1022.0 -9.9 -9.999 -99.9 -99.99 -9.99
2019/12/09 06:36 EST    5.54   5.33    5   94    7  41.0  43.2 1021.8 -9.9 -9.999 -99.9 -99.99 -9.99
2019/12/09 06:42 EST    5.73   5.49    5   87    7  41.0  43.0 1021.6 -9.9 -9.999 -99.9 -99.99 -9.99
2019/12/09 06:48 EST    5.91   5.65    5   79    7  41.2  43.2 1021.5 -9.9 -9.999 -99.9 -99.99 -9.99
2019/12/09 06:54 EST    6.08   5.82    4   88    6  41.2  43.2 1021.5 -9.9 -9.999 -99.9 -99.99 -9.99
2019/12/09 07:00 EST    6.24   5.97    3   85    5  41.4  43.2 1021.4 -9.9 -9.999 -99.9 -99.99 -9.99
2019/12/09 07:06 EST    6.39   6.13    2   76    5  41.4  43.2 1021.2 -9.9 -9.999 -99.9 -99.99 -9.99
2019/12/09 07:12 EST    6.53   6.27    2  104    5  41.4  43.2 1021.0 -9.9 -9.999 -99.9 -99.99 -9.99
2019/12/09 07:18 EST    6.65   6.41    1   63    5  41.4  43.2 1021.0 -9.9 -9.999 -99.9 -99.99 -9.99
2019/12/09 07:24 EST    6.77   6.55    0  137    3  41.5  43.2 1020.9 -9.9 -9.999 -99.9 -99.99 -9.99
2019/12/09 07:30 EST    6.87   6.67    0   62    1  41.5  43.2 1021.1 -9.9 -9.999 -99.9 -99.99 -9.99
2019/12/09 07:36 EST    6.96   6.78    3   30    3  41.5  43.3 1021.0 -9.9 -9.999 -99.9 -99.99 -9.99
2019/12/09 07:42 EST    7.04   6.88    3   49    4  41.5  43.2 1021.1 -9.9 -9.999 -99.9 -99.99 -9.99
2019/12/09 07:48 EST    7.12   6.96    4   55    5  41.7  43.3 1020.8 -9.9 -9.999 -99.9 -99.99 -9.99
2019/12/09 07:54 EST    7.18   7.04    4   76    5  41.9  43.3 1020.6 -9.9 -9.999 -99.9 -99.99 -9.99
2019/12/09 08:00 EST    7.24   7.12    3   82    4  41.9  43.2 1020.5 -9.9 -9.999 -99.9 -99.99 -9.99
2019/12/09 08:06 EST    7.29   7.19    4   62    5  41.9  43.3 1020.5 -9.9 -9.999 -99.9 -99.99 -9.99
2019/12/09 08:12 EST    7.34   7.25    3   82    6  41.9  43.3 1020.2 -9.9 -9.999 -99.9 -99.99 -9.99
2019/12/09 08:18 EST    7.37   7.31    3   74    5  42.1  43.3 1020.1 -9.9 -9.999 -99.9 -99.99 -9.99
2019/12/09 08:24 EST    7.41   7.36    3   62    6  42.1  43.3 1020.0 -9.9 -9.999 -99.9 -99.99 -9.99
2019/12/09 08:30 EST    7.44   7.39    3   82    4  42.1  43.3 1020.0 -9.9 -9.999 -99.9 -99.99 -9.99
2019/12/09 08:36 EST    7.46   7.42    3   80    4  42.4  43.3 1019.9 -9.9 -9.999 -99.9 -99.99 -9.99
2019/12/09 08:42 EST    7.48   7.44    3   41    7  42.4  43.3 1019.7 -9.9 -9.999 -99.9 -99.99 -9.99
2019/12/09 08:48 EST    7.50   7.46    4   42    8  42.6  43.3 1019.7 -9.9 -9.999 -99.9 -99.99 -9.99
2019/12/09 08:54 EST    7.52   7.47    5   59   10  42.4  43.2 1019.7 -9.9 -9.999 -99.9 -99.99 -9.99
2019/12/09 09:00 EST    7.53   7.48    2   74    8  42.8  43.2 1019.5 -9.9 -9.999 -99.9 -99.99 -9.99
2019/12/09 09:06 EST    7.53   7.49    1  216    4  43.7  43.0 1019.3 -9.9 -9.999 -99.9 -99.99 -9.99
2019/12/09 09:12 EST    7.53   7.51    3  254    4  46.2  43.0 1019.2 -9.9 -9.999 -99.9 -99.99 -9.99
2019/12/09 09:18 EST    7.53   7.52    3  212    5  47.7  43.0 1019.0 -9.9 -9.999 -99.9 -99.99 -9.99
2019/12/09 09:24 EST    7.53   7.53    4  321    6  48.6  43.0 1018.7 -9.9 -9.999 -99.9 -99.99 -9.99
2019/12/09 09:30 EST    7.51   7.53    5  226    8  47.7  43.0 1018.6 -9.9 -9.999 -99.9 -99.99 -9.99
2019/12/09 09:36 EST    7.50   7.52   10  222   16  48.4  43.0 1018.5 -9.9 -9.999 -99.9 -99.99 -9.99
2019/12/09 09:42 EST    7.47   7.50   17  217   21  50.9  43.0 1018.4 -9.9 -9.999 -99.9 -99.99 -9.99
2019/12/09 09:48 EST    7.44   7.45   18  219   22  51.8  43.0 1018.1 -9.9 -9.999 -99.9 -99.99 -9.99
2019/12/09 09:54 EST    7.41   7.43   17  220   22  52.2  43.0 1017.9 -9.9 -9.999 -99.9 -99.99 -9.99
2019/12/09 10:00 EST    7.36   7.41   18  219   22  52.2  43.0 1017.8 -9.9 -9.999 -99.9 -99.99 -9.99
2019/12/09 10:06 EST    7.31   7.36   18  225   22  52.2  43.0 1017.6 -9.9 -9.999 -99.9 -99.99 -9.99
2019/12/09 10:12 EST    7.24   7.28   17  230   21  52.5  43.2 1017.6 -9.9 -9.999 -99.9 -99.99 -9.99
2019/12/09 10:18 EST    7.17   7.22   17  231   21  52.5  43.2 1017.6 -9.9 -9.999 -99.9 -99.99 -9.99
2019/12/09 10:24 EST    7.09   7.15   18  227   26  53.1  43.2 1017.5 -9.9 -9.999 -99.9 -99.99 -9.99
2019/12/09 10:30 EST    7.00   7.05   19  228   23  52.3  43.2 1017.3 -9.9 -9.999 -99.9 -99.99 -9.99
2019/12/09 10:36 EST    6.89   6.94   18  225   24  52.9  43.2 1017.2 -9.9 -9.999 -99.9 -99.99 -9.99
2019/12/09 10:42 EST    6.78   6.81   19  226   23  52.5  43.2 1017.2 -9.9 -9.999 -99.9 -99.99 -9.99
2019/12/09 10:48 EST    6.65   6.67   19  222   24  52.5  43.2 1017.1 -9.9 -9.999 -99.9 -99.99 -9.99
2019/12/09 10:54 EST    6.52   6.52   19  228   22  52.2  43.2 1016.9 -9.9 -9.999 -99.9 -99.99 -9.99
2019/12/09 11:00 EST    6.37   6.35   20  221   24  51.8  43.2 1016.9 -9.9 -9.999 -99.9 -99.99 -9.99
2019/12/09 11:06 EST    6.21   6.18   17  223   21  51.8  43.2 1016.6 -9.9 -9.999 -99.9 -99.99 -9.99
2019/12/09 11:12 EST    6.05   5.98   15  223   19  51.6  43.3 1016.6 -9.9 -9.999 -99.9 -99.99 -9.99
2019/12/09 11:18 EST    5.87   5.82   14  219   17  51.4  43.3 1016.4 -9.9 -9.999 -99.9 -99.99 -9.99
2019/12/09 11:24 EST    5.69   5.58   14  225   17  51.1  43.3 1016.4 -9.9 -9.999 -99.9 -99.99 -9.99
2019/12/09 11:30 EST    5.49   5.38   11  229   15  51.1  43.3 1016.6 -9.9 -9.999 -99.9 -99.99 -9.99
2019/12/09 11:36 EST    5.29   5.16   13  231   15  51.3  43.5 1016.6 -9.9 -9.999 -99.9 -99.99 -9.99
2019/12/09 11:42 EST    5.09   4.96   12  228   16  51.8  43.3 1016.5 -9.9 -9.999 -99.9 -99.99 -9.99
2019/12/09 11:48 EST    4.87   4.76   11  224   15  51.8  43.3 1016.2 -9.9 -9.999 -99.9 -99.99 -9.99
2019/12/09 11:54 EST    4.66   4.54   12  217   13  50.9  43.2 1016.3 -9.9 -9.999 -99.9 -99.99 -9.99
2019/12/09 12:00 EST    4.44   4.35   15  219   16  50.4  43.2 1016.1 -9.9 -9.999 -99.9 -99.99 -9.99
2019/12/09 12:06 EST    4.22   4.15   15  222   17  51.6  43.3 1015.9 -9.9 -9.999 -99.9 -99.99 -9.99
2019/12/09 12:12 EST    3.99   3.94   13  223   15  51.1  43.3 1015.9 -9.9 -9.999 -99.9 -99.99 -9.99
2019/12/09 12:18 EST    3.77   3.74   12  226   15  51.3  43.2 1015.7 -9.9 -9.999 -99.9 -99.99 -9.99
2019/12/09 12:24 EST    3.54   3.55   10  227   13  51.3  43.2 1015.5 -9.9 -9.999 -99.9 -99.99 -9.99
2019/12/09 12:30 EST    3.32   3.35    8  229   11  51.1  43.2 1015.4 -9.9 -9.999 -99.9 -99.99 -9.99
2019/12/09 12:36 EST    3.11   3.17    9  226   10  50.7  43.2 1015.2 -9.9 -9.999 -99.9 -99.99 -9.99
2019/12/09 12:42 EST    2.90   2.99    9  226   10  50.5  43.2 1015.1 -9.9 -9.999 -99.9 -99.99 -9.99
2019/12/09 12:48 EST    2.69   2.82   13  223   14  50.7  43.2 1015.1 -9.9 -9.999 -99.9 -99.99 -9.99
2019/12/09 12:54 EST    2.49   2.63   10  232   14  51.3  43.2 1015.0 -9.9 -9.999 -99.9 -99.99 -9.99
2019/12/09 13:00 EST    2.30   2.46   10  232   14  51.6  43.2 1015.1 -9.9 -9.999 -99.9 -99.99 -9.99
2019/12/09 13:06 EST    2.11   2.29    9  263   11  51.8  43.2 1015.2 -9.9 -9.999 -99.9 -99.99 -9.99
2019/12/09 13:12 EST    1.94   2.14   10  250   12  52.0  43.3 1015.1 -9.9 -9.999 -99.9 -99.99 -9.99
2019/12/09 13:18 EST    1.77   1.99    9  243   12  52.0  43.3 1015.1 -9.9 -9.999 -99.9 -99.99 -9.99
2019/12/09 13:24 EST    1.61   1.85    8  240   10  52.0  43.3 1015.1 -9.9 -9.999 -99.9 -99.99 -9.99
2019/12/09 13:30 EST    1.47   1.71    8  240    9  51.8  43.3 1015.0 -9.9 -9.999 -99.9 -99.99 -9.99
2019/12/09 13:36 EST    1.33   1.59    7  239   10  51.6  43.3 1014.9 -9.9 -9.999 -99.9 -99.99 -9.99
2019/12/09 13:42 EST    1.20   1.48    7  233    9  51.4  43.5 1015.0 -9.9 -9.999 -99.9 -99.99 -9.99
2019/12/09 13:48 EST    1.09   1.38    7  245    9  51.6  43.5 1014.9 -9.9 -9.999 -99.9 -99.99 -9.99
2019/12/09 13:54 EST    0.98   1.28    6  242    9  51.4  43.5 1014.9 -9.9 -9.999 -99.9 -99.99 -9.99
2019/12/09 14:00 EST    0.88   1.21    8  260   10  51.8  43.5 1014.7 -9.9 -9.999 -99.9 -99.99 -9.99
2019/12/09 14:06 EST    0.79   1.15    8  256   10  50.9  43.5 1014.7 -9.9 -9.999 -99.9 -99.99 -9.99
2019/12/09 14:12 EST    0.71   1.08    7  246    9  51.3  43.5 1014.8 -9.9 -9.999 -99.9 -99.99 -9.99
2019/12/09 14:18 EST    0.64   1.03    7  234    8  51.4  43.5 1014.5 -9.9 -9.999 -99.9 -99.99 -9.99
2019/12/09 14:24 EST    0.57   0.97    7  235    9  51.6  43.5 1014.3 -9.9 -9.999 -99.9 -99.99 -9.99
2019/12/09 14:30 EST    0.51   0.96    6  252    7  51.8  43.5 1014.1 -9.9 -9.999 -99.9 -99.99 -9.99
2019/12/09 14:36 EST    0.45   0.92    6  252    8  52.2  43.5 1014.1 -9.9 -9.999 -99.9 -99.99 -9.99
2019/12/09 14:42 EST    0.40   0.91    7  252    8  51.8  43.5 1014.1 -9.9 -9.999 -99.9 -99.99 -9.99
2019/12/09 14:48 EST    0.36   0.89    7  231    9  51.4  43.3 1014.2 -9.9 -9.999 -99.9 -99.99 -9.99
2019/12/09 14:54 EST    0.31   0.88    7  227    9  51.6  43.3 1014.1 -9.9 -9.999 -99.9 -99.99 -9.99
2019/12/09 15:00 EST    0.27   0.88    7  222    9  50.9  43.5 1014.0 -9.9 -9.999 -99.9 -99.99 -9.99
2019/12/09 15:06 EST    0.24   0.86    8  222    8  50.5  43.3 1013.9 -9.9 -9.999 -99.9 -99.99 -9.99
2019/12/09 15:12 EST    0.20   0.84    8  221   11  50.5  43.5 1013.8 -9.9 -9.999 -99.9 -99.99 -9.99
2019/12/09 15:18 EST    0.17   0.83    7  222    8  50.0  43.5 1013.9 -9.9 -9.999 -99.9 -99.99 -9.99
2019/12/09 15:24 EST    0.14   0.82    8  212   10  49.8  43.5 1013.7 -9.9 -9.999 -99.9 -99.99 -9.99
2019/12/09 15:30 EST    0.12   0.79    7  220    9  51.6  43.5 1013.5 -9.9 -9.999 -99.9 -99.99 -9.99
2019/12/09 15:36 EST    0.09   0.76    8  223    9  51.3  43.5 1013.4 -9.9 -9.999 -99.9 -99.99 -9.99
2019/12/09 15:42 EST    0.08   0.72    9  201    9  49.8  43.3 1013.2 -9.9 -9.999 -99.9 -99.99 -9.99
2019/12/09 15:48 EST    0.06   0.68    6  184    9  50.7  43.3 1012.9 -9.9 -9.999 -99.9 -99.99 -9.99
2019/12/09 15:54 EST    0.05   0.64    8  201   11  51.3  43.3 1012.6 -9.9 -9.999 -99.9 -99.99 -9.99
2019/12/09 16:00 EST    0.05   0.56    8  196    9  51.3  43.3 1012.4 -9.9 -9.999 -99.9 -99.99 -9.99
2019/12/09 16:06 EST    0.05   0.54    8  189   13  51.4  43.3 1012.2 -9.9 -9.999 -99.9 -99.99 -9.99
2019/12/09 16:12 EST    0.06   0.50    9  201   11  51.8  43.3 1012.1 -9.9 -9.999 -99.9 -99.99 -9.99
2019/12/09 16:18 EST    0.08   0.47    9  201   11  51.1  43.2 1011.9 -9.9 -9.999 -99.9 -99.99 -9.99
2019/12/09 16:24 EST    0.11   0.45    9  216   10  51.3  43.2 1011.9 -9.9 -9.999 -99.9 -99.99 -9.99
2019/12/09 16:30 EST    0.15   0.45    8  234   10  51.3  43.0 1012.0 -9.9 -9.999 -99.9 -99.99 -9.99
2019/12/09 16:36 EST    0.21   0.49    9  228   11  51.3  43.0 1012.1 -9.9 -9.999 -99.9 -99.99 -9.99
2019/12/09 16:42 EST    0.27   0.52   10  216   12  50.7  42.8 1012.0 -9.9 -9.999 -99.9 -99.99 -9.99
2019/12/09 16:48 EST    0.35   0.55   11  219   12  50.5  43.0 1011.9 -9.9 -9.999 -99.9 -99.99 -9.99
2019/12/09 16:54 EST    0.44   0.61   11  222   13  50.5  43.0 1011.9 -9.9 -9.999 -99.9 -99.99 -9.99
2019/12/09 17:00 EST    0.55   0.69   11  227   12  50.9  43.0 1012.0 -9.9 -9.999 -99.9 -99.99 -9.99
2019/12/09 17:06 EST    0.67   0.78   10  225   13  50.7  43.2 1012.0 -9.9 -9.999 -99.9 -99.99 -9.99
2019/12/09 17:12 EST    0.80   0.88   10  219   12  49.8  43.3 1012.0 -9.9 -9.999 -99.9 -99.99 -9.99
2019/12/09 17:18 EST    0.95   1.02   11  217   14  50.0  43.3 1011.9 -9.9 -9.999 -99.9 -99.99 -9.99
2019/12/09 17:24 EST    1.11   1.15   11  218   14  50.5  43.5 1011.6 -9.9 -9.999 -99.9 -99.99 -9.99
2019/12/09 17:30 EST    1.29   1.32   11  220   13  50.0  43.5 1011.6 -9.9 -9.999 -99.9 -99.99 -9.99
2019/12/09 17:36 EST    1.47   1.49   12  213   15  50.0  43.5 1011.5 -9.9 -9.999 -99.9 -99.99 -9.99
2019/12/09 17:42 EST    1.67   1.69   11  222   13  49.5  43.7 1011.3 -9.9 -9.999 -99.9 -99.99 -9.99
2019/12/09 17:48 EST    1.88   1.91   14  208   15  49.8  43.7 1011.5 -9.9 -9.999 -99.9 -99.99 -9.99
2019/12/09 17:54 EST    2.10   2.15   14  210   16  49.6  43.7 1010.9 -9.9 -9.999 -99.9 -99.99 -9.99
2019/12/09 18:00 EST    2.32   2.41   13  208   14  49.3  43.7 1011.0 -9.9 -9.999 -99.9 -99.99 -9.99
2019/12/09 18:06 EST    2.56   2.68   15  199   16  49.1  43.7 1010.8 -9.9 -9.999 -99.9 -99.99 -9.99
2019/12/09 18:12 EST    2.79   2.94   14  208   16  50.5  43.5 1010.4 -9.9 -9.999 -99.9 -99.99 -9.99
2019/12/09 18:18 EST    3.03   3.21   14  209   16  49.5  43.5 1010.6 -9.9 -9.999 -99.9 -99.99 -9.99
2019/12/09 18:24 EST    3.27   3.46   15  205   17  49.1  43.5 1010.2 -9.9 -9.999 -99.9 -99.99 -9.99
2019/12/09 18:30 EST    3.50   3.74   15  206   17  49.5  43.5 1009.8 -9.9 -9.999 -99.9 -99.99 -9.99
2019/12/09 18:36 EST    3.74   3.99   16  216   18  49.8  43.5 1009.7 -9.9 -9.999 -99.9 -99.99 -9.99
2019/12/09 18:42 EST    3.97   4.26   16  217   18  50.2  43.7 1009.9 -9.9 -9.999 -99.9 -99.99 -9.99
2019/12/09 18:48 EST    4.19   4.51   14  221   17  49.8  43.7 1009.8 -9.9 -9.999 -99.9 -99.99 -9.99
2019/12/09 18:54 EST    4.41   4.76   12  224   15  50.2  43.9 1009.9 -9.9 -9.999 -99.9 -99.99 -9.99
2019/12/09 19:00 EST    4.62   5.01   12  236   15  50.5  43.9 1009.9 -9.9 -9.999 -99.9 -99.99 -9.99
2019/12/09 19:06 EST    4.82   5.22   16  224   17  51.6  43.9 1010.0 -9.9 -9.999 -99.9 -99.99 -9.99
2019/12/09 19:12 EST    5.02   5.46   16  222   18  51.6  43.9 1009.6 -9.9 -9.999 -99.9 -99.99 -9.99
2019/12/09 19:18 EST    5.20   5.68   15  224   17  51.8  43.9 1009.5 -9.9 -9.999 -99.9 -99.99 -9.99
2019/12/09 19:24 EST    5.37   5.90   14  230   17  51.4  43.9 1009.5 -9.9 -9.999 -99.9 -99.99 -9.99
2019/12/09 19:30 EST    5.53   6.09   12  227   15  52.2  43.9 1009.4 -9.9 -9.999 -99.9 -99.99 -9.99
2019/12/09 19:36 EST    5.67   6.25   12  228   15  52.0  43.9 1009.3 -9.9 -9.999 -99.9 -99.99 -9.99
2019/12/09 19:42 EST    5.81   6.40   18  220   20  51.3  43.9 1009.0 -9.9 -9.999 -99.9 -99.99 -9.99
2019/12/09 19:48 EST    5.93   6.54   17  219   21  51.4  43.9 1008.7 -9.9 -9.999 -99.9 -99.99 -9.99
2019/12/09 19:54 EST    6.05   6.66   14  219   17  51.3  43.9 1008.7 -9.9 -9.999 -99.9 -99.99 -9.99
2019/12/09 20:00 EST    6.15   6.74   13  220   16  51.3  43.9 1008.8 -9.9 -9.999 -99.9 -99.99 -9.99
2019/12/09 20:06 EST    6.25   6.84   14  225   16  51.4  43.9 1008.8 -9.9 -9.999 -99.9 -99.99 -9.99
2019/12/09 20:12 EST    6.33   6.92   13  226   15  51.4  43.9 1008.8 -9.9 -9.999 -99.9 -99.99 -9.99
2019/12/09 20:18 EST    6.41   6.97   12  223   15  51.3  43.9 1008.9 -9.9 -9.999 -99.9 -99.99 -9.99
2019/12/09 20:24 EST    6.47   7.02   12  222   14  50.9  44.1 1008.8 -9.9 -9.999 -99.9 -99.99 -9.99
2019/12/09 20:30 EST    6.54   7.05   12  222   14  50.5  44.1 1008.7 -9.9 -9.999 -99.9 -99.99 -9.99
2019/12/09 20:36 EST    6.59   7.05   11  226   13  50.5  44.1 1008.8 -9.9 -9.999 -99.9 -99.99 -9.99
2019/12/09 20:42 EST    6.64   7.06   11  225   15  50.9  44.1 1008.8 -9.9 -9.999 -99.9 -99.99 -9.99
2019/12/09 20:48 EST    6.68   7.07   12  222   14  51.3  44.1 1008.6 -9.9 -9.999 -99.9 -99.99 -9.99
2019/12/09 20:54 EST    6.72   7.07   11  224   12  50.7  44.1 1008.6 -9.9 -9.999 -99.9 -99.99 -9.99
2019/12/09 21:00 EST    6.75   7.07   11  222   12  50.9  44.1 1008.7 -9.9 -9.999 -99.9 -99.99 -9.99
2019/12/09 21:06 EST    6.78   7.08   11  227   16  51.3  44.1 1008.6 -9.9 -9.999 -99.9 -99.99 -9.99
2019/12/09 21:12 EST    6.81   7.08   12  238   16  51.6  44.1 1008.5 -9.9 -9.999 -99.9 -99.99 -9.99
2019/12/09 21:18 EST    6.83   7.09   11  225   16  53.2  44.1 1008.3 -9.9 -9.999 -99.9 -99.99 -9.99
2019/12/09 21:24 EST    6.85   7.10   10  230   13  52.2  44.1 1008.4 -9.9 -9.999 -99.9 -99.99 -9.99
2019/12/09 21:30 EST    6.86   7.10   10  239   12  52.2  44.1 1008.5 -9.9 -9.999 -99.9 -99.99 -9.99
2019/12/09 21:36 EST    6.87   7.10   12  256   16  52.5  44.1 1008.7 -9.9 -9.999 -99.9 -99.99 -9.99
2019/12/09 21:42 EST    6.87   7.10   16  258   20  54.3  43.9 1008.5 -9.9 -9.999 -99.9 -99.99 -9.99
2019/12/09 21:48 EST    6.87   7.09   19  262   24  55.4  44.1 1008.2 -9.9 -9.999 -99.9 -99.99 -9.99
2019/12/09 21:54 EST    6.87   7.08   18  266   24  54.7  44.1 1008.3 -9.9 -9.999 -99.9 -99.99 -9.99
2019/12/09 22:00 EST    6.86   7.07   15  266   23  54.9  43.9 1008.4 -9.9 -9.999 -99.9 -99.99 -9.99
2019/12/09 22:06 EST    6.84   7.08   15  270   19  54.3  43.9 1008.3 -9.9 -9.999 -99.9 -99.99 -9.99
2019/12/09 22:12 EST    6.82   7.09   14  263   18  54.7  43.9 1008.2 -9.9 -9.999 -99.9 -99.99 -9.99
2019/12/09 22:18 EST    6.78   7.09   12  265   18  54.3  43.9 1008.1 -9.9 -9.999 -99.9 -99.99 -9.99
2019/12/09 22:24 EST    6.74   7.05   15  273   18  54.0  43.9 1008.2 -9.9 -9.999 -99.9 -99.99 -9.99
2019/12/09 22:30 EST    6.70   7.04   15  256   21  54.5  43.9 1008.2 -9.9 -9.999 -99.9 -99.99 -9.99
2019/12/09 22:36 EST    6.64   7.01   12  254   19  54.3  43.9 1008.0 -9.9 -9.999 -99.9 -99.99 -9.99
2019/12/09 22:42 EST    6.57   6.97   12  250   18  54.3  43.9 1008.0 -9.9 -9.999 -99.9 -99.99 -9.99
2019/12/09 22:48 EST    6.50   6.91   10  252   14  54.7  43.9 1007.9 -9.9 -9.999 -99.9 -99.99 -9.99
2019/12/09 22:54 EST    6.41   6.86   12  259   23  54.3  43.9 1008.0 -9.9 -9.999 -99.9 -99.99 -9.99
2019/12/09 23:00 EST    6.31   6.79   13  255   17  54.1  43.9 1008.0 -9.9 -9.999 -99.9 -99.99 -9.99
2019/12/09 23:06 EST    6.20   6.68   11  257   15  54.5  43.9 1007.9 -9.9 -9.999 -99.9 -99.99 -9.99
2019/12/09 23:12 EST    6.08   6.60   11  261   16  54.5  43.7 1007.9 -9.9 -9.999 -99.9 -99.99 -9.99
2019/12/09 23:18 EST    5.96   6.52   12  258   16  54.1  43.7 1007.9 -9.9 -9.999 -99.9 -99.99 -9.99
2019/12/09 23:24 EST    5.82   6.39   10  256   13  54.1  43.7 1008.0 -9.9 -9.999 -99.9 -99.99 -9.99
2019/12/09 23:30 EST    5.67   6.26    9  252   13  54.0  43.7 1007.9 -9.9 -9.999 -99.9 -99.99 -9.99
2019/12/09 23:36 EST    5.51   6.13   11  260   17  54.0  43.7 1007.8 -9.9 -9.999 -99.9 -99.99 -9.99
2019/12/09 23:42 EST    5.34   5.97   16  263   20  54.9  43.7 1008.0 -9.9 -9.999 -99.9 -99.99 -9.99
2019/12/09 23:48 EST    5.16   5.81   15  267   19  55.0  43.7 1007.9 -9.9 -9.999 -99.9 -99.99 -9.99
2019/12/09 23:54 EST    4.98   5.65   12  256   15  54.9  43.7 1007.9 -9.9 -9.999 -99.9 -99.99 -9.99
2019/12/10 00:00 EST    4.79   5.44   13  247   18  54.3  43.7 1007.8 -9.9 -9.999 -99.9 -99.99 -9.99
2019/12/10 00:06 EST    4.59   5.24   12  253   17  54.9  43.9 1007.6 -9.9 -9.999 -99.9 -99.99 -9.99
2019/12/10 00:12 EST    4.38   5.03   11  246   16  55.0  43.9 1007.3 -9.9 -9.999 -99.9 -99.99 -9.99
2019/12/10 00:18 EST    4.18   4.82   11  246   16  55.0  43.9 1007.3 -9.9 -9.999 -99.9 -99.99 -9.99
2019/12/10 00:24 EST    3.97   4.61   13  250   16  55.0  43.9 1007.1 -9.9 -9.999 -99.9 -99.99 -9.99
2019/12/10 00:30 EST    3.75   4.41   11  251   17  55.2  43.9 1007.3 -9.9 -9.999 -99.9 -99.99 -9.99
2019/12/10 00:36 EST    3.54   4.20   10  256   15  55.2  44.1 1007.7 -9.9 -9.999 -99.9 -99.99 -9.99
2019/12/10 00:42 EST    3.33   3.98   13  258   17  54.9  44.1 1007.8 -9.9 -9.999 -99.9 -99.99 -9.99
2019/12/10 00:48 EST    3.12   3.78   13  254   16  55.2  44.1 1007.6 -9.9 -9.999 -99.9 -99.99 -9.99
2019/12/10 00:54 EST    2.91   3.57   11  257   15  55.2  44.1 1007.6 -9.9 -9.999 -99.9 -99.99 -9.99
2019/12/10 01:00 EST    2.71   3.38   10  252   13  55.2  44.1 1007.7 -9.9 -9.999 -99.9 -99.99 -9.99
2019/12/10 01:06 EST    2.51   3.18   11  258   15  55.0  44.1 1007.6 -9.9 -9.999 -99.9 -99.99 -9.99
2019/12/10 01:12 EST    2.32   3.00   14  265   16  55.6  44.1 1007.6 -9.9 -9.999 -99.9 -99.99 -9.99
2019/12/10 01:18 EST    2.14   2.82    9  262   13  55.4  44.1 1007.6 -9.9 -9.999 -99.9 -99.99 -9.99
2019/12/10 01:24 EST    1.96   2.66   11  254   14  55.0  44.1 1007.6 -9.9 -9.999 -99.9 -99.99 -9.99
2019/12/10 01:30 EST    1.79   2.49   10  254   14  56.1  44.1 1007.6 -9.9 -9.999 -99.9 -99.99 -9.99
2019/12/10 01:36 EST    1.64   2.35   10  254   13  55.8  44.1 1007.5 -9.9 -9.999 -99.9 -99.99 -9.99
2019/12/10 01:42 EST    1.49   2.20    9  257   15  56.1  44.1 1007.4 -9.9 -9.999 -99.9 -99.99 -9.99
2019/12/10 01:48 EST    1.35   2.05    9  252   12  55.8  44.1 1007.6 -9.9 -9.999 -99.9 -99.99 -9.99
2019/12/10 01:54 EST    1.23   1.92    9  262   14  56.1  44.1 1007.8 -9.9 -9.999 -99.9 -99.99 -9.99
2019/12/10 02:00 EST    1.11   1.77   11  259   13  55.8  44.1 1007.9 -9.9 -9.999 -99.9 -99.99 -9.99
2019/12/10 02:06 EST    1.01   1.64   10  260   11  55.9  44.1 1008.1 -9.9 -9.999 -99.9 -99.99 -9.99
2019/12/10 02:12 EST    0.92   1.50   11  254   14  55.6  44.1 1008.0 -9.9 -9.999 -99.9 -99.99 -9.99
2019/12/10 02:18 EST    0.84   1.39    8  265   11  55.9  44.1 1007.9 -9.9 -9.999 -99.9 -99.99 -9.99
2019/12/10 02:24 EST    0.77   1.28    8  269   10  56.1  44.1 1008.2 -9.9 -9.999 -99.9 -99.99 -9.99
2019/12/10 02:30 EST    0.70   1.19    7  268   10  55.6  43.9 1008.3 -9.9 -9.999 -99.9 -99.99 -9.99
2019/12/10 02:36 EST    0.65   1.08    7  257    9  56.5  44.1 1008.1 -9.9 -9.999 -99.9 -99.99 -9.99
2019/12/10 02:42 EST    0.61   1.01    8  256    9  56.5  44.1 1008.1 -9.9 -9.999 -99.9 -99.99 -9.99
2019/12/10 02:48 EST    0.57   0.95    8  245    9  56.5  44.1 1008.1 -9.9 -9.999 -99.9 -99.99 -9.99
2019/12/10 02:54 EST    0.54   0.93    6  247   10  56.8  44.1 1008.3 -9.9 -9.999 -99.9 -99.99 -9.99
2019/12/10 03:00 EST    0.52   0.90    7  245    9  56.1  44.1 1008.3 -9.9 -9.999 -99.9 -99.99 -9.99
2019/12/10 03:06 EST    0.50   0.88    8  233   11  56.8  44.1 1008.2 -9.9 -9.999 -99.9 -99.99 -9.99
2019/12/10 03:12 EST    0.49   0.87    7  237    9  56.8  44.1 1008.0 -9.9 -9.999 -99.9 -99.99 -9.99
2019/12/10 03:18 EST    0.49   0.88    7  241    9  56.3  44.1 1008.0 -9.9 -9.999 -99.9 -99.99 -9.99
2019/12/10 03:24 EST    0.48   0.88    8  239   10  56.5  44.1 1008.1 -9.9 -9.999 -99.9 -99.99 -9.99
2019/12/10 03:30 EST    0.48   0.88    8  236    9  56.7  44.1 1008.2 -9.9 -9.999 -99.9 -99.99 -9.99
2019/12/10 03:36 EST    0.49   0.88    9  245   12  56.7  44.1 1008.2 -9.9 -9.999 -99.9 -99.99 -9.99
2019/12/10 03:42 EST    0.49   0.87   10  236   12  56.8  44.1 1008.3 -9.9 -9.999 -99.9 -99.99 -9.99
2019/12/10 03:48 EST    0.50   0.88   10  243   13  56.8  44.1 1008.1 -9.9 -9.999 -99.9 -99.99 -9.99
2019/12/10 03:54 EST    0.52   0.86    9  253   11  56.5  44.1 1008.1 -9.9 -9.999 -99.9 -99.99 -9.99
2019/12/10 04:00 EST    0.53   0.88    9  256    9  56.7  44.1 1008.3 -9.9 -9.999 -99.9 -99.99 -9.99
2019/12/10 04:06 EST    0.55   0.89    8  248   11  55.8  44.1 1008.7 -9.9 -9.999 -99.9 -99.99 -9.99
2019/12/10 04:12 EST    0.58   0.90    8  238    9  56.5  44.1 1008.5 -9.9 -9.999 -99.9 -99.99 -9.99
2019/12/10 04:18 EST    0.61   0.93    8  238    9  56.5  44.1 1008.4 -9.9 -9.999 -99.9 -99.99 -9.99
2019/12/10 04:24 EST    0.64   0.95    9  236   10  56.7  44.1 1008.2 -9.9 -9.999 -99.9 -99.99 -9.99
2019/12/10 04:30 EST    0.68   0.98   10  233   11  56.7  43.9 1008.2 -9.9 -9.999 -99.9 -99.99 -9.99
2019/12/10 04:36 EST    0.73   1.04   10  235   12  55.9  43.9 1008.1 -9.9 -9.999 -99.9 -99.99 -9.99
2019/12/10 04:42 EST    0.79   1.12   10  241   11  56.3  44.1 1008.1 -9.9 -9.999 -99.9 -99.99 -9.99
2019/12/10 04:48 EST    0.86   1.20   11  243   12  56.8  44.1 1008.1 -9.9 -9.999 -99.9 -99.99 -9.99
2019/12/10 04:54 EST    0.93   1.32   10  248   12  56.7  44.1 1008.2 -9.9 -9.999 -99.9 -99.99 -9.99
2019/12/10 05:00 EST    1.02   1.45   10  247   12  56.1  44.1 1008.3 -9.9 -9.999 -99.9 -99.99 -9.99
2019/12/10 05:06 EST    1.12   1.59   10  240   11  56.3  44.1 1008.4 -9.9 -9.999 -99.9 -99.99 -9.99
2019/12/10 05:12 EST    1.23   1.73   10  242   12  56.3  44.2 1008.4 -9.9 -9.999 -99.9 -99.99 -9.99
2019/12/10 05:18 EST    1.35   1.89    9  245   11  55.6  44.2 1008.6 -9.9 -9.999 -99.9 -99.99 -9.99
2019/12/10 05:24 EST    1.49   2.05   10  237   11  56.3  44.2 1008.6 -9.9 -9.999 -99.9 -99.99 -9.99
2019/12/10 05:30 EST    1.64   2.21    9  242   11  56.1  44.2 1008.5 -9.9 -9.999 -99.9 -99.99 -9.99
2019/12/10 05:36 EST    1.80   2.37    9  238   11  55.9  44.1 1008.5 -9.9 -9.999 -99.9 -99.99 -9.99
2019/12/10 05:42 EST    1.98   2.54   10  236   11  56.1  44.1 1008.3 -9.9 -9.999 -99.9 -99.99 -9.99
2019/12/10 05:48 EST    2.16   2.70   10  249   12  56.1  44.1 1008.5 -9.9 -9.999 -99.9 -99.99 -9.99
2019/12/10 05:54 EST    2.36   2.85   10  244   12  56.1  44.2 1008.7 -9.9 -9.999 -99.9 -99.99 -9.99
2019/12/10 06:00 EST    2.58   3.02   10  241   11  55.9  44.2 1008.7 -9.9 -9.999 -99.9 -99.99 -9.99
2019/12/10 06:06 EST    2.80 -99.99 -999 -999 -999 -99.9 -99.9 -999.9 -9.9 -9.999 -99.9 -99.99 -9.99
2019/12/10 06:12 EST    3.03 -99.99 -999 -999 -999 -99.9 -99.9 -999.9 -9.9 -9.999 -99.9 -99.99 -9.99